Time,TemperatureF,DewpointF,PressureIn,WindDirection,WindDirectionDegrees,WindSpeedMPH,WindSpeedGustMPH,Humidity,HourlyPrecipIn,Conditions,Clouds,dailyrainin,SoftwareType,DateUTC
2013-02-25 00:00:00,23.6,20.1,30.18,WNW,303,0.0,0.0,86,0.00,,,0.00,VWS V14.01,2013-02-25 05:00:00,
2013-02-25 00:01:00,24.2,20.9,30.18,WNW,303,0.0,0.0,87,0.00,,,0.00,VWS V14.01,2013-02-25 05:01:00,
2013-02-25 00:05:00,24.1,21.5,30.18,WNW,303,0.0,0.0,90,0.00,,,0.00,VWS V14.01,2013-02-25 05:05:00,
2013-02-25 00:06:00,24.7,22.5,30.18,WNW,303,0.0,0.0,91,0.00,,,0.00,VWS V14.01,2013-02-25 05:06:00,
2013-02-25 00:07:00,23.9,21.8,30.18,WNW,303,0.0,0.0,91,0.00,,,0.00,VWS V14.01,2013-02-25 05:07:00,
2013-02-25 00:08:00,24.0,21.8,30.18,WNW,303,0.0,0.0,91,0.00,,,0.00,VWS V14.01,2013-02-25 05:08:00,
2013-02-25 00:10:00,24.5,22.6,30.18,SW,225,0.0,0.0,93,0.00,,,0.00,VWS V14.01,2013-02-25 05:10:00,
2013-02-25 00:12:00,24.5,22.7,30.18,SW,225,0.0,0.0,93,0.00,,,0.00,VWS V14.01,2013-02-25 05:12:00,
2013-02-25 00:15:00,25.3,23.6,30.24,SW,225,0.0,0.0,93,0.00,,,0.00,VWS V14.01,2013-02-25 05:15:00,
2013-02-25 00:16:00,25.7,24.2,30.19,SW,225,0.0,0.0,94,0.00,,,0.00,VWS V14.01,2013-02-25 05:16:00,
2013-02-25 00:17:00,26.2,24.8,30.18,SW,225,1.6,1.6,94,0.00,,,0.00,VWS V14.01,2013-02-25 05:17:00,
2013-02-25 00:19:00,25.5,24.0,30.18,SW,225,1.8,1.8,94,0.00,,,0.00,VWS V14.01,2013-02-25 05:19:00,
2013-02-25 00:20:00,25.2,23.5,30.18,SW,225,2.0,2.0,93,0.00,,,0.00,VWS V14.01,2013-02-25 05:20:00,
2013-02-25 00:22:00,23.9,21.8,30.19,SW,225,0.0,0.0,92,0.00,,,0.00,VWS V14.01,2013-02-25 05:22:00,
2013-02-25 00:24:00,25.0,23.3,30.18,SW,225,1.0,1.0,93,0.00,,,0.00,VWS V14.01,2013-02-25 05:24:00,
2013-02-25 00:25:00,25.0,23.3,30.18,SW,225,1.0,1.0,93,0.00,,,0.00,VWS V14.01,2013-02-25 05:25:00,
2013-02-25 00:27:00,26.6,25.1,30.18,WSW,256,2.2,2.2,94,0.00,,,0.00,VWS V14.01,2013-02-25 05:27:00,
2013-02-25 00:30:00,24.0,21.5,30.18,WSW,256,0.0,0.0,90,0.00,,,0.00,VWS V14.01,2013-02-25 05:30:00,
2013-02-25 00:31:00,23.5,20.9,30.18,WSW,256,0.0,0.0,90,0.00,,,0.00,VWS V14.01,2013-02-25 05:31:00,
2013-02-25 00:32:00,24.5,22.4,30.19,WSW,256,0.0,1.1,92,0.00,,,0.00,VWS V14.01,2013-02-25 05:32:00,
2013-02-25 00:33:00,24.0,21.9,30.18,WSW,256,0.0,0.0,92,0.00,,,0.00,VWS V14.01,2013-02-25 05:33:00,
2013-02-25 00:36:00,24.8,23.1,30.19,WSW,256,0.0,0.0,93,0.00,,,0.00,VWS V14.01,2013-02-25 05:36:00,
2013-02-25 00:38:00,24.6,23.1,30.19,WSW,256,0.0,0.0,94,0.00,,,0.00,VWS V14.01,2013-02-25 05:38:00,
2013-02-25 00:39:00,24.6,23.1,30.19,WSW,256,0.0,0.0,94,0.00,,,0.00,VWS V14.01,2013-02-25 05:39:00,
2013-02-25 00:41:00,25.2,24.0,30.18,WSW,256,0.0,0.0,95,0.00,,,0.00,VWS V14.01,2013-02-25 05:41:00,
2013-02-25 00:43:00,24.9,23.6,30.19,WSW,256,0.0,0.0,95,0.00,,,0.00,VWS V14.01,2013-02-25 05:43:00,
2013-02-25 00:44:00,25.0,23.7,30.19,WSW,256,0.0,0.0,94,0.00,,,0.00,VWS V14.01,2013-02-25 05:44:00,
2013-02-25 00:45:00,24.9,23.5,30.19,NW,317,0.0,0.0,94,0.00,,,0.00,VWS V14.01,2013-02-25 05:45:00,
2013-02-25 00:47:00,25.1,23.6,30.19,NW,317,0.0,1.8,94,0.00,,,0.00,VWS V14.01,2013-02-25 05:47:00,
2013-02-25 00:48:00,25.1,23.7,30.18,NW,317,2.0,2.0,94,0.00,,,0.00,VWS V14.01,2013-02-25 05:48:00,
2013-02-25 00:49:00,25.0,23.5,30.19,NW,317,2.5,2.5,94,0.00,,,0.00,VWS V14.01,2013-02-25 05:49:00,
2013-02-25 00:50:00,24.5,22.9,30.19,NW,317,1.8,2.2,93,0.00,,,0.00,VWS V14.01,2013-02-25 05:50:00,
2013-02-25 00:52:00,24.7,23.0,30.24,NW,317,1.8,1.8,93,0.00,,,0.00,VWS V14.01,2013-02-25 05:52:00,
2013-02-25 00:54:00,24.9,23.4,30.19,NW,317,1.1,1.1,94,0.00,,,0.00,VWS V14.01,2013-02-25 05:54:00,
2013-02-25 00:55:00,24.5,23.0,30.19,NW,317,0.0,0.0,94,0.00,,,0.00,VWS V14.01,2013-02-25 05:55:00,
2013-02-25 00:56:00,24.4,22.8,30.18,NW,317,0.0,0.0,94,0.00,,,0.00,VWS V14.01,2013-02-25 05:56:00,
2013-02-25 00:58:00,24.3,22.6,30.18,NW,317,0.0,0.0,93,0.00,,,0.00,VWS V14.01,2013-02-25 05:58:00,
2013-02-25 01:01:00,23.5,22.0,30.19,North,10,0.0,0.0,94,0.00,,,0.00,VWS V14.01,2013-02-25 06:01:00,
2013-02-25 01:02:00,22.4,21.0,30.18,North,10,0.0,0.0,94,0.00,,,0.00,VWS V14.01,2013-02-25 06:02:00,
2013-02-25 01:04:00,22.7,21.3,30.19,North,10,0.0,0.0,94,0.00,,,0.00,VWS V14.01,2013-02-25 06:04:00,
2013-02-25 01:06:00,23.2,22.0,30.19,North,10,0.0,0.0,95,0.00,,,0.00,VWS V14.01,2013-02-25 06:06:00,
2013-02-25 01:07:00,22.1,20.9,30.19,North,10,0.0,0.0,95,0.00,,,0.00,VWS V14.01,2013-02-25 06:07:00,
2013-02-25 01:08:00,22.1,20.9,30.19,North,10,0.0,0.0,95,0.00,,,0.00,VWS V14.01,2013-02-25 06:08:00,
2013-02-25 01:12:00,22.5,21.9,30.19,South,174,1.5,1.8,97,0.00,,,0.00,VWS V14.01,2013-02-25 06:12:00,
2013-02-25 01:13:00,22.7,22.2,30.19,South,174,0.0,1.8,98,0.00,,,0.00,VWS V14.01,2013-02-25 06:13:00,
2013-02-25 01:14:00,22.8,22.5,30.19,South,174,0.0,1.8,98,0.00,,,0.00,VWS V14.01,2013-02-25 06:14:00,
2013-02-25 01:17:00,22.7,22.5,30.20,South,174,0.0,1.8,99,0.00,,,0.00,VWS V14.01,2013-02-25 06:17:00,
2013-02-25 01:18:00,22.4,22.2,30.19,South,174,0.0,1.8,99,0.00,,,0.00,VWS V14.01,2013-02-25 06:18:00,
2013-02-25 01:20:00,22.0,21.7,30.20,South,174,0.0,1.8,99,0.00,,,0.00,VWS V14.01,2013-02-25 06:20:00,
2013-02-25 01:22:00,23.0,22.9,30.20,South,174,0.0,1.8,100,0.00,,,0.00,VWS V14.01,2013-02-25 06:22:00,
2013-02-25 01:24:00,22.8,22.8,30.19,South,174,0.0,1.8,100,0.00,,,0.00,VWS V14.01,2013-02-25 06:24:00,
2013-02-25 01:25:00,23.3,23.3,30.20,South,174,0.0,1.8,100,0.00,,,0.00,VWS V14.01,2013-02-25 06:25:00,
2013-02-25 01:26:00,23.3,23.3,30.20,South,174,0.0,1.8,100,0.00,,,0.00,VWS V14.01,2013-02-25 06:26:00,
2013-02-25 01:28:00,22.8,22.8,30.20,South,174,0.0,1.8,100,0.00,,,0.00,VWS V14.01,2013-02-25 06:28:00,
2013-02-25 01:30:00,22.9,22.9,30.20,South,174,0.0,1.8,100,0.00,,,0.00,VWS V14.01,2013-02-25 06:30:00,
2013-02-25 01:31:00,22.8,22.8,30.20,South,174,0.0,1.8,100,0.00,,,0.00,VWS V14.01,2013-02-25 06:31:00,
2013-02-25 01:33:00,22.4,22.4,30.20,South,174,0.0,1.8,100,0.00,,,0.00,VWS V14.01,2013-02-25 06:33:00,
2013-02-25 01:35:00,22.3,22.3,30.20,South,174,0.0,1.8,100,0.00,,,0.00,VWS V14.01,2013-02-25 06:35:00,
2013-02-25 01:36:00,21.9,21.9,30.20,South,174,0.0,1.8,100,0.00,,,0.00,VWS V14.01,2013-02-25 06:36:00,
2013-02-25 01:38:00,21.7,21.7,30.20,South,174,0.0,1.8,100,0.00,,,0.00,VWS V14.01,2013-02-25 06:38:00,
2013-02-25 01:39:00,22.2,22.2,30.20,South,174,0.0,1.8,100,0.00,,,0.00,VWS V14.01,2013-02-25 06:39:00,
2013-02-25 01:41:00,22.5,22.5,30.20,South,174,0.0,1.8,100,0.00,,,0.00,VWS V14.01,2013-02-25 06:41:00,
2013-02-25 01:42:00,22.3,22.3,30.20,South,174,0.0,1.8,100,0.00,,,0.00,VWS V14.01,2013-02-25 06:42:00,
2013-02-25 01:44:00,22.1,22.1,30.20,South,174,0.0,1.8,100,0.00,,,0.00,VWS V14.01,2013-02-25 06:44:00,
2013-02-25 01:48:00,23.0,23.0,30.21,West,268,0.0,1.8,100,0.00,,,0.00,VWS V14.01,2013-02-25 06:48:00,
2013-02-25 01:49:00,23.2,23.2,30.21,West,268,0.0,1.8,100,0.00,,,0.00,VWS V14.01,2013-02-25 06:49:00,
2013-02-25 01:50:00,22.6,22.6,30.20,WSW,257,2.2,2.2,100,0.00,,,0.00,VWS V14.01,2013-02-25 06:50:00,
2013-02-25 01:53:00,23.2,23.2,30.20,WSW,257,1.8,2.2,100,0.00,,,0.00,VWS V14.01,2013-02-25 06:53:00,
2013-02-25 01:55:00,23.7,23.7,30.21,WSW,257,0.0,2.2,100,0.00,,,0.00,VWS V14.01,2013-02-25 06:55:00,
2013-02-25 01:56:00,23.3,23.0,30.20,WSW,257,0.0,2.2,99,0.00,,,0.00,VWS V14.01,2013-02-25 06:56:00,
2013-02-25 01:58:00,22.8,22.8,30.20,WSW,257,0.0,2.2,100,0.00,,,0.00,VWS V14.01,2013-02-25 06:58:00,
2013-02-25 01:59:00,22.4,22.4,30.20,WSW,257,0.0,2.2,100,0.00,,,0.00,VWS V14.01,2013-02-25 06:59:00,
2013-02-25 02:03:00,22.2,22.2,30.27,WSW,257,0.0,2.2,100,0.00,,,0.00,VWS V14.01,2013-02-25 07:03:00,
2013-02-25 02:05:00,22.8,22.8,30.20,WSW,257,0.0,2.2,100,0.00,,,0.00,VWS V14.01,2013-02-25 07:05:00,
2013-02-25 02:06:00,22.1,22.1,30.18,North,0,0.0,0.0,100,0.00,,,0.00,VWS V14.01,2013-02-25 07:06:00,
2013-02-25 02:07:00,22.0,22.0,30.18,North,0,0.0,0.0,100,0.00,,,0.00,VWS V14.01,2013-02-25 07:07:00,
2013-02-25 02:08:00,23.0,23.0,30.20,WNW,301,0.0,2.2,100,0.00,,,0.00,VWS V14.01,2013-02-25 07:08:00,
2013-02-25 02:09:00,23.0,23.0,30.20,WNW,301,0.0,2.2,100,0.00,,,0.00,VWS V14.01,2013-02-25 07:09:00,
2013-02-25 02:10:00,22.0,22.0,30.19,North,0,0.0,0.0,100,0.00,,,0.00,VWS V14.01,2013-02-25 07:10:00,
2013-02-25 02:11:00,22.6,22.6,30.20,WNW,301,1.8,2.2,100,0.00,,,0.00,VWS V14.01,2013-02-25 07:11:00,
2013-02-25 02:12:00,22.7,22.7,30.20,WNW,301,1.8,2.2,100,0.00,,,0.00,VWS V14.01,2013-02-25 07:12:00,
2013-02-25 02:13:00,22.5,22.5,30.24,North,0,0.0,0.0,100,0.00,,,0.00,VWS V14.01,2013-02-25 07:13:00,
2013-02-25 02:14:00,22.2,22.2,30.20,WNW,301,2.0,2.2,100,0.00,,,0.00,VWS V14.01,2013-02-25 07:14:00,
2013-02-25 02:15:00,22.5,22.5,30.20,WNW,301,0.0,2.2,100,0.00,,,0.00,VWS V14.01,2013-02-25 07:15:00,
2013-02-25 02:16:00,22.6,22.6,30.20,WNW,301,0.0,2.2,100,0.00,,,0.00,VWS V14.01,2013-02-25 07:16:00,
2013-02-25 02:17:00,22.7,22.7,30.19,North,0,0.0,0.0,100,0.00,,,0.00,VWS V14.01,2013-02-25 07:17:00,
2013-02-25 02:18:00,22.1,22.1,30.20,WNW,301,1.8,2.2,100,0.00,,,0.00,VWS V14.01,2013-02-25 07:18:00,
2013-02-25 02:19:00,22.1,22.1,30.19,North,0,0.0,0.0,100,0.00,,,0.00,VWS V14.01,2013-02-25 07:19:00,
2013-02-25 02:20:00,22.2,22.2,30.19,North,0,0.0,0.0,100,0.00,,,0.00,VWS V14.01,2013-02-25 07:20:00,
2013-02-25 02:21:00,22.1,22.1,30.20,WNW,301,1.8,2.2,100,0.00,,,0.00,VWS V14.01,2013-02-25 07:21:00,
2013-02-25 02:22:00,22.1,22.1,30.20,WNW,301,1.8,2.2,100,0.00,,,0.00,VWS V14.01,2013-02-25 07:22:00,
2013-02-25 02:23:00,19.8,19.8,30.19,NNE,12,0.0,0.0,100,0.00,,,0.00,VWS V14.01,2013-02-25 07:23:00,
2013-02-25 02:24:00,22.4,22.4,30.20,WNW,301,1.5,2.2,100,0.00,,,0.00,VWS V14.01,2013-02-25 07:24:00,
2013-02-25 02:25:00,19.9,19.9,30.19,NE,45,0.0,0.0,100,0.00,,,0.00,VWS V14.01,2013-02-25 07:25:00,
2013-02-25 02:26:00,22.4,22.4,30.20,WNW,301,0.0,2.2,100,0.00,,,0.00,VWS V14.01,2013-02-25 07:26:00,
2013-02-25 02:27:00,22.4,22.4,30.20,WNW,301,0.0,2.2,100,0.00,,,0.00,VWS V14.01,2013-02-25 07:27:00,
2013-02-25 02:28:00,20.7,20.7,30.19,NE,37,0.0,1.0,100,0.00,,,0.00,VWS V14.01,2013-02-25 07:28:00,
2013-02-25 02:29:00,22.1,22.1,30.20,WNW,301,2.0,2.2,100,0.00,,,0.00,VWS V14.01,2013-02-25 07:29:00,
2013-02-25 02:30:00,22.3,22.3,30.20,WNW,301,1.1,2.2,100,0.00,,,0.00,VWS V14.01,2013-02-25 07:30:00,
2013-02-25 02:31:00,20.1,20.1,30.19,NE,37,0.0,1.0,100,0.00,,,0.00,VWS V14.01,2013-02-25 07:31:00,
2013-02-25 02:32:00,21.5,21.5,30.20,WNW,301,1.0,2.2,100,0.00,,,0.00,VWS V14.01,2013-02-25 07:32:00,
2013-02-25 02:33:00,19.7,19.7,30.19,NE,37,0.0,1.0,100,0.00,,,0.00,VWS V14.01,2013-02-25 07:33:00,
2013-02-25 02:34:00,21.9,21.8,30.20,NNW,330,0.0,2.2,100,0.00,,,0.00,VWS V14.01,2013-02-25 07:34:00,
2013-02-25 02:35:00,19.7,19.7,30.19,NE,37,0.0,1.0,100,0.00,,,0.00,VWS V14.01,2013-02-25 07:35:00,
2013-02-25 02:36:00,21.1,21.1,30.20,NNW,330,0.0,2.2,100,0.00,,,0.00,VWS V14.01,2013-02-25 07:36:00,
2013-02-25 02:37:00,19.1,19.1,30.19,NE,37,0.0,1.0,100,0.00,,,0.00,VWS V14.01,2013-02-25 07:37:00,
2013-02-25 02:38:00,18.5,18.5,30.19,NE,37,0.0,1.0,100,0.00,,,0.00,VWS V14.01,2013-02-25 07:38:00,
2013-02-25 02:39:00,18.6,18.6,30.19,NE,37,0.0,1.0,100,0.00,,,0.00,VWS V14.01,2013-02-25 07:39:00,
2013-02-25 02:40:00,17.9,17.9,30.18,NE,37,0.0,1.0,100,0.00,,,0.00,VWS V14.01,2013-02-25 07:40:00,
2013-02-25 02:41:00,21.1,21.1,30.19,NNW,330,0.0,2.2,100,0.00,,,0.00,VWS V14.01,2013-02-25 07:41:00,
2013-02-25 02:42:00,21.2,21.2,30.20,NNW,330,0.0,2.2,100,0.00,,,0.00,VWS V14.01,2013-02-25 07:42:00,
2013-02-25 02:43:00,19.6,19.6,30.19,NE,37,0.0,1.0,100,0.00,,,0.00,VWS V14.01,2013-02-25 07:43:00,
2013-02-25 02:44:00,19.8,19.8,30.19,NE,37,0.0,1.0,100,0.00,,,0.00,VWS V14.01,2013-02-25 07:44:00,
2013-02-25 02:45:00,19.8,19.8,30.19,NE,37,0.0,1.0,100,0.00,,,0.00,VWS V14.01,2013-02-25 07:45:00,
2013-02-25 02:46:00,20.3,20.3,30.20,NNW,330,0.0,2.2,100,0.00,,,0.00,VWS V14.01,2013-02-25 07:46:00,
2013-02-25 02:47:00,20.2,20.2,30.20,NNW,330,0.0,2.2,100,0.00,,,0.00,VWS V14.01,2013-02-25 07:47:00,
2013-02-25 02:48:00,19.8,19.8,30.19,NE,36,0.0,1.0,100,0.00,,,0.00,VWS V14.01,2013-02-25 07:48:00,
2013-02-25 02:49:00,20.9,20.9,30.19,NNW,330,0.0,2.2,100,0.00,,,0.00,VWS V14.01,2013-02-25 07:49:00,
2013-02-25 02:50:00,20.4,20.4,30.18,NE,36,0.0,1.0,100,0.00,,,0.00,VWS V14.01,2013-02-25 07:50:00,
2013-02-25 02:51:00,20.7,20.7,30.20,NNW,330,0.0,2.2,100,0.00,,,0.00,VWS V14.01,2013-02-25 07:51:00,
2013-02-25 02:52:00,20.2,20.2,30.19,NNW,330,0.0,2.2,100,0.00,,,0.00,VWS V14.01,2013-02-25 07:52:00,
2013-02-25 02:53:00,19.9,19.9,30.18,NE,35,0.0,1.8,100,0.00,,,0.00,VWS V14.01,2013-02-25 07:53:00,
2013-02-25 02:54:00,20.1,20.1,30.19,NNW,337,0.0,2.2,100,0.00,,,0.00,VWS V14.01,2013-02-25 07:54:00,
2013-02-25 02:55:00,20.3,20.3,30.19,NNE,22,2.3,2.3,100,0.00,,,0.00,VWS V14.01,2013-02-25 07:55:00,
2013-02-25 02:56:00,20.6,20.4,30.20,NNW,337,0.0,2.2,99,0.00,,,0.00,VWS V14.01,2013-02-25 07:56:00,
2013-02-25 02:57:00,20.7,20.7,30.19,NNE,16,0.0,2.3,100,0.00,,,0.00,VWS V14.01,2013-02-25 07:57:00,
2013-02-25 02:58:00,20.8,20.8,30.19,NNE,16,0.0,2.3,100,0.00,,,0.00,VWS V14.01,2013-02-25 07:58:00,
2013-02-25 02:59:00,20.5,20.5,30.19,NNW,337,0.0,2.2,100,0.00,,,0.00,VWS V14.01,2013-02-25 07:59:00,
2013-02-25 03:00:00,21.2,21.2,30.18,NNE,16,0.0,2.3,100,0.00,,,0.00,VWS V14.01,2013-02-25 08:00:00,
2013-02-25 03:01:00,20.7,20.7,30.20,NNW,337,0.0,2.2,100,0.00,,,0.00,VWS V14.01,2013-02-25 08:01:00,
2013-02-25 03:02:00,20.1,20.1,30.20,NNW,337,0.0,2.2,100,0.00,,,0.00,VWS V14.01,2013-02-25 08:02:00,
2013-02-25 03:03:00,22.4,22.4,30.19,North,0,0.0,0.0,100,0.00,,,0.00,VWS V14.01,2013-02-25 08:03:00,
2013-02-25 03:04:00,20.0,20.0,30.20,NNW,337,0.0,0.0,100,0.00,,,0.00,VWS V14.01,2013-02-25 08:04:00,
2013-02-25 03:05:00,19.8,19.8,30.20,NNW,337,0.0,0.0,100,0.00,,,0.00,VWS V14.01,2013-02-25 08:05:00,
2013-02-25 03:07:00,20.5,20.5,30.20,NNW,337,0.0,0.0,100,0.00,,,0.00,VWS V14.01,2013-02-25 08:07:00,
2013-02-25 03:10:00,20.2,20.2,30.20,NNW,337,0.0,0.0,100,0.00,,,0.00,VWS V14.01,2013-02-25 08:10:00,
2013-02-25 03:11:00,20.4,20.4,30.20,NNW,337,0.0,0.0,100,0.00,,,0.00,VWS V14.01,2013-02-25 08:11:00,
2013-02-25 03:12:00,20.1,20.1,30.20,NNW,337,0.0,0.0,100,0.00,,,0.00,VWS V14.01,2013-02-25 08:12:00,
2013-02-25 03:15:00,20.6,20.6,30.20,NNW,337,0.0,0.0,100,0.00,,,0.00,VWS V14.01,2013-02-25 08:15:00,
2013-02-25 03:16:00,20.8,20.8,30.20,NNW,337,0.0,0.0,100,0.00,,,0.00,VWS V14.01,2013-02-25 08:16:00,
2013-02-25 03:17:00,20.6,20.6,30.20,North,2,0.0,0.0,100,0.00,,,0.00,VWS V14.01,2013-02-25 08:17:00,
2013-02-25 03:20:00,22.4,22.4,30.20,North,2,0.0,0.0,100,0.00,,,0.00,VWS V14.01,2013-02-25 08:20:00,
2013-02-25 03:22:00,23.0,23.0,30.20,NNE,14,0.0,0.0,100,0.00,,,0.00,VWS V14.01,2013-02-25 08:22:00,
2013-02-25 03:23:00,23.3,23.3,30.20,NNE,14,0.0,1.3,100,0.00,,,0.00,VWS V14.01,2013-02-25 08:23:00,
2013-02-25 03:25:00,22.9,22.9,30.19,NNE,14,0.0,0.0,100,0.00,,,0.00,VWS V14.01,2013-02-25 08:25:00,
2013-02-25 03:26:00,23.3,23.3,30.20,NNE,14,0.0,0.0,100,0.00,,,0.00,VWS V14.01,2013-02-25 08:26:00,
2013-02-25 03:28:00,22.9,22.9,30.20,NNE,14,0.0,0.0,100,0.00,,,0.00,VWS V14.01,2013-02-25 08:28:00,
2013-02-25 03:29:00,22.8,22.8,30.20,NNE,14,0.0,0.0,100,0.00,,,0.00,VWS V14.01,2013-02-25 08:29:00,
2013-02-25 03:30:00,22.9,22.9,30.20,NNE,14,0.0,0.0,100,0.00,,,0.00,VWS V14.01,2013-02-25 08:30:00,
2013-02-25 03:31:00,23.2,23.2,30.20,NNE,14,0.0,0.0,100,0.00,,,0.00,VWS V14.01,2013-02-25 08:31:00,
2013-02-25 03:35:00,22.9,22.9,30.20,NNE,19,2.5,2.5,100,0.00,,,0.00,VWS V14.01,2013-02-25 08:35:00,
2013-02-25 03:36:00,22.7,22.7,30.20,NNE,19,0.0,1.0,100,0.00,,,0.00,VWS V14.01,2013-02-25 08:36:00,
2013-02-25 03:37:00,22.6,22.6,30.20,NNE,19,0.0,1.0,100,0.00,,,0.00,VWS V14.01,2013-02-25 08:37:00,
2013-02-25 03:38:00,22.5,22.5,30.19,NNE,19,0.0,0.0,100,0.00,,,0.00,VWS V14.01,2013-02-25 08:38:00,
2013-02-25 03:41:00,22.3,22.3,30.19,NNE,19,1.3,1.3,100,0.00,,,0.00,VWS V14.01,2013-02-25 08:41:00,
2013-02-25 03:42:00,22.0,22.0,30.18,NNE,19,0.0,0.0,100,0.00,,,0.00,VWS V14.01,2013-02-25 08:42:00,
2013-02-25 03:43:00,21.8,21.8,30.19,NNE,19,0.0,0.0,100,0.00,,,0.00,VWS V14.01,2013-02-25 08:43:00,
2013-02-25 03:46:00,22.2,22.2,30.19,NNE,12,0.0,0.0,100,0.00,,,0.00,VWS V14.01,2013-02-25 08:46:00,
2013-02-25 03:47:00,22.0,22.0,30.18,North,8,0.0,1.6,100,0.00,,,0.00,VWS V14.01,2013-02-25 08:47:00,
2013-02-25 03:49:00,22.3,22.3,30.19,North,5,1.1,1.1,100,0.00,,,0.00,VWS V14.01,2013-02-25 08:49:00,
2013-02-25 03:51:00,21.9,21.9,30.19,North,0,0.0,0.0,100,0.00,,,0.00,VWS V14.01,2013-02-25 08:51:00,
2013-02-25 03:52:00,22.5,22.5,30.19,North,0,0.0,0.0,100,0.00,,,0.00,VWS V14.01,2013-02-25 08:52:00,
2013-02-25 03:54:00,21.9,21.9,30.19,North,0,0.0,0.0,100,0.00,,,0.00,VWS V14.01,2013-02-25 08:54:00,
2013-02-25 03:56:00,21.8,21.8,30.19,North,0,0.0,0.0,100,0.00,,,0.00,VWS V14.01,2013-02-25 08:56:00,
2013-02-25 03:57:00,22.0,22.0,30.24,North,0,0.0,0.0,100,0.00,,,0.00,VWS V14.01,2013-02-25 08:57:00,
2013-02-25 03:58:00,22.0,22.0,30.24,North,0,0.0,0.0,100,0.00,,,0.00,VWS V14.01,2013-02-25 08:58:00,
2013-02-25 04:00:00,22.0,22.0,30.19,North,0,0.0,0.0,100,0.00,,,0.00,VWS V14.01,2013-02-25 09:00:00,
2013-02-25 04:01:00,22.2,22.2,30.18,North,0,0.0,0.0,100,0.00,,,0.00,VWS V14.01,2013-02-25 09:01:00,
2013-02-25 04:57:00,20.9,20.9,30.18,NNE,16,0.0,2.3,100,0.00,,,0.00,VWS V14.01,2013-02-25 09:57:00,
2013-02-25 04:58:00,21.3,21.2,30.18,NNE,16,0.0,2.3,100,0.00,,,0.00,VWS V14.01,2013-02-25 09:58:00,
2013-02-25 04:59:00,21.4,21.4,30.18,NNE,16,0.0,0.0,100,0.00,,,0.00,VWS V14.01,2013-02-25 09:59:00,
2013-02-25 05:02:00,21.3,21.3,30.19,NNE,16,0.0,0.0,100,0.00,,,0.00,VWS V14.01,2013-02-25 10:02:00,
2013-02-25 05:03:00,21.3,21.3,30.19,NNE,16,0.0,0.0,100,0.00,,,0.00,VWS V14.01,2013-02-25 10:03:00,
2013-02-25 05:04:00,20.9,20.9,30.19,North,4,0.0,0.0,100,0.00,,,0.00,VWS V14.01,2013-02-25 10:04:00,
2013-02-25 05:05:00,21.3,21.3,30.19,North,5,0.0,0.0,100,0.00,,,0.00,VWS V14.01,2013-02-25 10:05:00,
2013-02-25 05:08:00,20.9,20.9,30.19,North,4,0.0,0.0,100,0.00,,,0.00,VWS V14.01,2013-02-25 10:08:00,
2013-02-25 05:09:00,21.4,21.4,30.19,North,4,0.0,0.0,100,0.00,,,0.00,VWS V14.01,2013-02-25 10:09:00,
2013-02-25 05:10:00,20.4,20.4,30.18,NNW,331,0.0,0.0,100,0.00,,,0.00,VWS V14.01,2013-02-25 10:10:00,
2013-02-25 05:11:00,18.5,18.5,30.25,WNW,286,0.0,2.0,100,0.00,,,0.00,VWS V14.01,2013-02-25 10:11:00,
2013-02-25 05:14:00,18.6,18.4,30.19,SW,229,0.0,2.0,99,0.00,,,0.00,VWS V14.01,2013-02-25 10:14:00,
2013-02-25 05:15:00,19.0,19.0,30.20,SW,229,0.0,2.0,100,0.00,,,0.00,VWS V14.01,2013-02-25 10:15:00,
2013-02-25 05:16:00,21.1,21.1,30.19,WSW,243,0.0,2.0,100,0.00,,,0.00,VWS V14.01,2013-02-25 10:16:00,
2013-02-25 05:17:00,19.2,19.2,30.19,WSW,243,0.0,2.0,100,0.00,,,0.00,VWS V14.01,2013-02-25 10:17:00,
2013-02-25 05:20:00,18.2,18.2,30.19,NNE,21,0.0,2.0,100,0.00,,,0.00,VWS V14.01,2013-02-25 10:20:00,
2013-02-25 05:21:00,20.4,20.4,30.19,SSE,157,0.0,2.0,100,0.00,,,0.00,VWS V14.01,2013-02-25 10:21:00,
2013-02-25 05:22:00,20.8,20.8,30.19,SSE,157,0.0,2.0,100,0.00,,,0.00,VWS V14.01,2013-02-25 10:22:00,
2013-02-25 05:23:00,20.4,20.4,30.19,SSE,157,0.0,2.0,100,0.00,,,0.00,VWS V14.01,2013-02-25 10:23:00,
2013-02-25 05:26:00,19.4,19.4,30.20,West,265,1.8,2.0,100,0.00,,,0.00,VWS V14.01,2013-02-25 10:26:00,
2013-02-25 05:27:00,19.8,19.8,30.20,West,265,2.0,2.0,100,0.00,,,0.00,VWS V14.01,2013-02-25 10:27:00,
2013-02-25 05:28:00,19.9,19.9,30.20,West,276,1.1,2.0,100,0.00,,,0.00,VWS V14.01,2013-02-25 10:28:00,
2013-02-25 05:32:00,19.0,19.0,30.20,NW,316,0.0,2.5,100,0.00,,,0.00,VWS V14.01,2013-02-25 10:32:00,
2013-02-25 05:34:00,18.5,18.5,30.20,WNW,302,0.0,2.5,100,0.00,,,0.00,VWS V14.01,2013-02-25 10:34:00,
2013-02-25 05:36:00,20.6,20.6,30.20,WNW,302,0.0,2.5,100,0.00,,,0.00,VWS V14.01,2013-02-25 10:36:00,
2013-02-25 05:37:00,19.3,19.3,30.26,WNW,302,0.0,2.5,100,0.00,,,0.00,VWS V14.01,2013-02-25 10:37:00,
2013-02-25 05:40:00,20.0,20.0,30.21,WNW,302,2.2,2.5,100,0.00,,,0.00,VWS V14.01,2013-02-25 10:40:00,
2013-02-25 05:41:00,20.5,20.5,30.21,WNW,302,0.0,2.5,100,0.00,,,0.00,VWS V14.01,2013-02-25 10:41:00,
2013-02-25 05:42:00,19.4,19.4,30.21,WNW,302,1.6,2.5,100,0.00,,,0.00,VWS V14.01,2013-02-25 10:42:00,
2013-02-25 05:43:00,20.1,20.1,30.21,WNW,302,0.0,2.5,100,0.00,,,0.00,VWS V14.01,2013-02-25 10:43:00,
2013-02-25 05:46:00,20.0,20.0,30.21,WNW,297,0.0,2.5,100,0.00,,,0.00,VWS V14.01,2013-02-25 10:46:00,
2013-02-25 05:47:00,19.8,19.8,30.21,WNW,297,2.2,2.5,100,0.00,,,0.00,VWS V14.01,2013-02-25 10:47:00,
2013-02-25 05:48:00,19.8,19.8,30.21,WNW,297,1.6,2.5,100,0.00,,,0.00,VWS V14.01,2013-02-25 10:48:00,
2013-02-25 05:53:00,19.2,19.2,30.22,WNW,292,1.5,2.5,100,0.00,,,0.00,VWS V14.01,2013-02-25 10:53:00,
2013-02-25 05:54:00,18.9,18.9,30.22,WNW,292,0.0,2.5,100,0.00,,,0.00,VWS V14.01,2013-02-25 10:54:00,
2013-02-25 05:58:00,18.9,18.9,30.23,WNW,299,0.0,2.5,100,0.00,,,0.00,VWS V14.01,2013-02-25 10:58:00,
2013-02-25 05:59:00,18.7,18.7,30.22,WNW,299,0.0,2.5,100,0.00,,,0.00,VWS V14.01,2013-02-25 10:59:00,
2013-02-25 06:01:00,18.3,18.3,30.22,WNW,299,0.0,2.5,100,0.00,,,0.00,VWS V14.01,2013-02-25 11:01:00,
2013-02-25 06:03:00,18.6,18.6,30.22,NW,306,1.5,2.5,100,0.00,,,0.00,VWS V14.01,2013-02-25 11:03:00,
2013-02-25 06:04:00,18.7,18.7,30.22,NW,306,1.1,2.5,100,0.00,,,0.00,VWS V14.01,2013-02-25 11:04:00,
2013-02-25 06:05:00,18.7,18.7,30.22,NW,306,1.1,2.5,100,0.00,,,0.00,VWS V14.01,2013-02-25 11:05:00,
2013-02-25 06:06:00,19.0,19.0,30.23,NW,319,1.8,2.5,100,0.00,,,0.00,VWS V14.01,2013-02-25 11:06:00,
2013-02-25 06:09:00,19.0,19.0,30.23,NW,319,2.2,2.5,100,0.00,,,0.00,VWS V14.01,2013-02-25 11:09:00,
2013-02-25 06:10:00,19.1,19.1,30.22,NW,319,2.2,2.5,100,0.00,,,0.00,VWS V14.01,2013-02-25 11:10:00,
2013-02-25 06:11:00,19.1,19.1,30.22,NW,319,2.5,2.5,100,0.00,,,0.00,VWS V14.01,2013-02-25 11:11:00,
2013-02-25 06:14:00,18.3,18.3,30.23,NW,319,1.0,2.8,100,0.00,,,0.00,VWS V14.01,2013-02-25 11:14:00,
2013-02-25 06:16:00,18.0,18.0,30.22,NW,319,1.8,2.8,100,0.00,,,0.00,VWS V14.01,2013-02-25 11:16:00,
2013-02-25 06:19:00,18.6,18.6,30.22,NW,319,0.0,2.8,100,0.00,,,0.00,VWS V14.01,2013-02-25 11:19:00,
2013-02-25 06:21:00,19.0,19.0,30.23,NNW,340,0.0,2.8,100,0.00,,,0.00,VWS V14.01,2013-02-25 11:21:00,
2013-02-25 06:23:00,18.0,18.0,30.23,North,8,0.0,2.8,100,0.00,,,0.00,VWS V14.01,2013-02-25 11:23:00,
2013-02-25 06:25:00,18.6,18.6,30.23,North,8,0.0,2.8,100,0.00,,,0.00,VWS V14.01,2013-02-25 11:25:00,
2013-02-25 06:26:00,17.5,17.5,30.23,North,8,0.0,2.8,100,0.00,,,0.00,VWS V14.01,2013-02-25 11:26:00,
2013-02-25 06:28:00,18.0,18.0,30.23,North,8,0.0,2.8,100,0.00,,,0.00,VWS V14.01,2013-02-25 11:28:00,
2013-02-25 06:30:00,17.9,17.9,30.29,North,8,0.0,2.8,100,0.00,,,0.00,VWS V14.01,2013-02-25 11:30:00,
2013-02-25 06:31:00,17.8,17.8,30.24,North,8,0.0,2.8,100,0.00,,,0.00,VWS V14.01,2013-02-25 11:31:00,
2013-02-25 06:32:00,18.0,18.0,30.23,North,8,0.0,2.8,100,0.00,,,0.00,VWS V14.01,2013-02-25 11:32:00,
2013-02-25 06:34:00,18.2,18.2,30.23,North,8,0.0,2.8,100,0.00,,,0.00,VWS V14.01,2013-02-25 11:34:00,
2013-02-25 06:36:00,17.8,17.8,30.23,North,8,0.0,2.8,100,0.00,,,0.00,VWS V14.01,2013-02-25 11:36:00,
2013-02-25 06:39:00,19.6,19.6,30.23,NNW,345,0.0,2.8,100,0.00,,,0.00,VWS V14.01,2013-02-25 11:39:00,
2013-02-25 06:40:00,18.6,18.6,30.23,NNW,345,0.0,2.8,100,0.00,,,0.00,VWS V14.01,2013-02-25 11:40:00,
2013-02-25 06:41:00,17.9,17.9,30.24,NNW,345,0.0,2.8,100,0.00,,,0.00,VWS V14.01,2013-02-25 11:41:00,
2013-02-25 06:42:00,17.5,17.5,30.23,NNW,345,0.0,2.8,100,0.00,,,0.00,VWS V14.01,2013-02-25 11:42:00,
2013-02-25 06:44:00,17.7,17.7,30.23,NNW,345,0.0,2.8,100,0.00,,,0.00,VWS V14.01,2013-02-25 11:44:00,
2013-02-25 06:46:00,17.4,17.4,30.23,NNE,12,0.0,2.8,100,0.00,,,0.00,VWS V14.01,2013-02-25 11:46:00,
2013-02-25 06:48:00,16.9,16.9,30.24,North,11,0.0,2.8,100,0.00,,,0.00,VWS V14.01,2013-02-25 11:48:00,
2013-02-25 06:49:00,16.3,16.3,30.24,North,11,0.0,2.8,100,0.00,,,0.00,VWS V14.01,2013-02-25 11:49:00,
2013-02-25 06:51:00,16.5,16.5,30.24,NNE,12,0.0,2.8,100,0.00,,,0.00,VWS V14.01,2013-02-25 11:51:00,
2013-02-25 06:54:00,17.4,17.4,30.24,North,11,0.0,0.0,100,0.00,,,0.00,VWS V14.01,2013-02-25 11:54:00,
2013-02-25 06:57:00,16.8,16.8,30.24,North,11,0.0,0.0,100,0.00,,,0.00,VWS V14.01,2013-02-25 11:57:00,
2013-02-25 06:58:00,16.9,16.9,30.24,North,11,0.0,0.0,100,0.00,,,0.00,VWS V14.01,2013-02-25 11:58:00,
2013-02-25 07:00:00,17.7,17.7,30.24,North,11,0.0,0.0,100,0.00,,,0.00,VWS V14.01,2013-02-25 12:00:00,
2013-02-25 07:03:00,16.6,16.6,30.25,North,11,0.0,0.0,100,0.00,,,0.00,VWS V14.01,2013-02-25 12:03:00,
2013-02-25 07:04:00,16.6,16.6,30.24,North,11,0.0,0.0,100,0.00,,,0.00,VWS V14.01,2013-02-25 12:04:00,
2013-02-25 07:05:00,16.7,16.7,30.25,North,11,0.0,0.0,100,0.00,,,0.00,VWS V14.01,2013-02-25 12:05:00,
2013-02-25 07:09:00,16.7,16.7,30.25,North,11,0.0,0.0,100,0.00,,,0.00,VWS V14.01,2013-02-25 12:09:00,
2013-02-25 07:11:00,16.1,16.1,30.24,North,11,0.0,0.0,100,0.00,,,0.00,VWS V14.01,2013-02-25 12:11:00,
2013-02-25 07:14:00,16.0,16.0,30.26,North,11,0.0,0.0,100,0.00,,,0.00,VWS V14.01,2013-02-25 12:14:00,
2013-02-25 07:16:00,16.3,16.3,30.25,North,11,0.0,0.0,100,0.00,,,0.00,VWS V14.01,2013-02-25 12:16:00,
2013-02-25 07:17:00,16.9,16.9,30.25,North,11,0.0,0.0,100,0.00,,,0.00,VWS V14.01,2013-02-25 12:17:00,
2013-02-25 07:20:00,16.7,16.7,30.25,North,11,0.0,0.0,100,0.00,,,0.00,VWS V14.01,2013-02-25 12:20:00,
2013-02-25 07:22:00,17.6,17.6,30.25,North,11,0.0,0.0,100,0.00,,,0.00,VWS V14.01,2013-02-25 12:22:00,
2013-02-25 07:23:00,18.0,18.0,30.25,North,11,0.0,0.0,100,0.00,,,0.00,VWS V14.01,2013-02-25 12:23:00,
2013-02-25 07:25:00,17.6,16.6,30.26,North,11,0.0,0.0,96,0.00,,,0.00,VWS V14.01,2013-02-25 12:25:00,
2013-02-25 07:27:00,17.8,17.8,30.26,North,11,0.0,0.0,100,0.00,,,0.00,VWS V14.01,2013-02-25 12:27:00,
2013-02-25 07:28:00,17.8,17.8,30.26,North,11,0.0,0.0,100,0.00,,,0.00,VWS V14.01,2013-02-25 12:28:00,
2013-02-25 07:29:00,17.9,17.9,30.26,North,11,0.0,0.0,100,0.00,,,0.00,VWS V14.01,2013-02-25 12:29:00,
2013-02-25 07:30:00,17.8,17.8,30.26,North,11,0.0,0.0,100,0.00,,,0.00,VWS V14.01,2013-02-25 12:30:00,
2013-02-25 07:34:00,18.4,18.4,30.26,North,11,0.0,0.0,100,0.00,,,0.00,VWS V14.01,2013-02-25 12:34:00,
2013-02-25 07:35:00,18.2,18.2,30.28,North,11,0.0,0.0,100,0.00,,,0.00,VWS V14.01,2013-02-25 12:35:00,
2013-02-25 07:39:00,18.4,18.4,30.26,North,11,0.0,0.0,100,0.00,,,0.00,VWS V14.01,2013-02-25 12:39:00,
2013-02-25 07:40:00,18.4,18.4,30.26,North,11,0.0,0.0,100,0.00,,,0.00,VWS V14.01,2013-02-25 12:40:00,
2013-02-25 07:41:00,18.4,18.4,30.26,North,11,0.0,0.0,100,0.00,,,0.00,VWS V14.01,2013-02-25 12:41:00,
2013-02-25 07:42:00,18.5,18.5,30.26,North,11,0.0,0.0,100,0.00,,,0.00,VWS V14.01,2013-02-25 12:42:00,
2013-02-25 07:45:00,18.8,18.8,30.26,North,11,0.0,0.0,100,0.00,,,0.00,VWS V14.01,2013-02-25 12:45:00,
2013-02-25 07:48:00,19.5,19.5,30.26,North,11,0.0,0.0,100,0.00,,,0.00,VWS V14.01,2013-02-25 12:48:00,
2013-02-25 07:51:00,19.0,19.0,30.26,North,351,0.0,0.0,100,0.00,,,0.00,VWS V14.01,2013-02-25 12:51:00,
2013-02-25 07:52:00,19.5,19.4,30.26,North,351,0.0,0.0,100,0.00,,,0.00,VWS V14.01,2013-02-25 12:52:00,
2013-02-25 07:57:00,21.1,20.3,30.26,North,352,0.0,0.0,97,0.00,,,0.00,VWS V14.01,2013-02-25 12:57:00,
2013-02-25 07:58:00,22.6,21.7,30.26,North,352,0.0,0.0,96,0.00,,,0.00,VWS V14.01,2013-02-25 12:58:00,
2013-02-25 08:02:00,22.9,21.1,30.26,NNE,27,0.0,0.0,92,0.00,,,0.00,VWS V14.01,2013-02-25 13:02:00,
2013-02-25 08:03:00,22.8,20.8,30.26,NNE,27,0.0,0.0,92,0.00,,,0.00,VWS V14.01,2013-02-25 13:03:00,
2013-02-25 08:04:00,22.9,20.8,30.26,NNE,27,0.0,0.0,92,0.00,,,0.00,VWS V14.01,2013-02-25 13:04:00,
2013-02-25 08:05:00,23.0,20.9,30.26,NNE,27,0.0,0.0,92,0.00,,,0.00,VWS V14.01,2013-02-25 13:05:00,
2013-02-25 08:07:00,26.6,24.5,30.26,NNE,27,0.0,0.0,92,0.00,,,0.00,VWS V14.01,2013-02-25 13:07:00,
2013-02-25 08:09:00,28.1,25.4,30.26,NNE,27,0.0,0.0,89,0.00,,,0.00,VWS V14.01,2013-02-25 13:09:00,
2013-02-25 08:10:00,29.4,26.1,30.26,NNE,27,0.0,0.0,88,0.00,,,0.00,VWS V14.01,2013-02-25 13:10:00,
2013-02-25 08:11:00,27.6,23.6,30.26,NNE,27,0.0,0.0,85,0.00,,,0.00,VWS V14.01,2013-02-25 13:11:00,
2013-02-25 08:14:00,26.4,20.2,30.26,NNE,27,0.0,0.0,77,0.00,,,0.00,VWS V14.01,2013-02-25 13:14:00,
2013-02-25 08:16:00,28.6,22.8,30.26,NNE,27,0.0,0.0,79,0.00,,,0.00,VWS V14.01,2013-02-25 13:16:00,
2013-02-25 08:17:00,27.2,21.2,30.26,NNE,27,0.0,0.0,78,0.00,,,0.00,VWS V14.01,2013-02-25 13:17:00,
2013-02-25 08:20:00,25.0,17.4,30.26,NNE,27,0.0,0.0,73,0.00,,,0.00,VWS V14.01,2013-02-25 13:20:00,
2013-02-25 08:21:00,26.8,20.1,30.26,NNE,27,0.0,0.0,75,0.00,,,0.00,VWS V14.01,2013-02-25 13:21:00,
2013-02-25 08:22:00,27.0,20.8,30.25,NNE,27,0.0,0.0,77,0.00,,,0.00,VWS V14.01,2013-02-25 13:22:00,
2013-02-25 08:26:00,25.8,20.1,30.25,ESE,102,0.0,0.0,79,0.00,,,0.00,VWS V14.01,2013-02-25 13:26:00,
2013-02-25 08:27:00,25.9,20.2,30.25,ESE,102,0.0,0.0,79,0.00,,,0.00,VWS V14.01,2013-02-25 13:27:00,
2013-02-25 08:28:00,27.2,21.7,30.25,ESE,102,0.0,0.0,79,0.00,,,0.00,VWS V14.01,2013-02-25 13:28:00,
2013-02-25 08:31:00,26.6,21.0,30.25,ESE,102,0.0,0.0,79,0.00,,,0.00,VWS V14.01,2013-02-25 13:31:00,
2013-02-25 08:32:00,26.7,21.2,30.25,ESE,102,0.0,0.0,79,0.00,,,0.00,VWS V14.01,2013-02-25 13:32:00,
2013-02-25 08:33:00,27.1,21.2,30.25,East,91,0.0,0.0,78,0.00,,,0.00,VWS V14.01,2013-02-25 13:33:00,
2013-02-25 08:35:00,27.0,20.8,30.24,East,91,0.0,0.0,77,0.00,,,0.00,VWS V14.01,2013-02-25 13:35:00,
2013-02-25 08:37:00,26.1,19.6,30.25,NE,39,0.0,0.0,76,0.00,,,0.00,VWS V14.01,2013-02-25 13:37:00,
2013-02-25 08:40:00,27.7,22.0,30.24,NE,40,0.0,0.0,79,0.00,,,0.00,VWS V14.01,2013-02-25 13:40:00,
2013-02-25 08:42:00,27.6,21.5,30.24,NNE,25,2.3,2.3,78,0.00,,,0.00,VWS V14.01,2013-02-25 13:42:00,
2013-02-25 08:44:00,27.7,22.2,30.22,NE,46,1.6,1.6,80,0.00,,,0.00,VWS V14.01,2013-02-25 13:44:00,
2013-02-25 08:46:00,27.1,21.5,30.28,ENE,60,1.8,1.8,79,0.00,,,0.00,VWS V14.01,2013-02-25 13:46:00,
2013-02-25 08:48:00,28.0,22.2,30.23,NE,46,2.0,2.0,78,0.00,,,0.00,VWS V14.01,2013-02-25 13:48:00,
2013-02-25 08:50:00,29.0,23.3,30.24,East,83,1.5,2.5,79,0.00,,,0.00,VWS V14.01,2013-02-25 13:50:00,
2013-02-25 08:51:00,27.8,21.5,30.23,NNE,32,2.7,2.7,77,0.00,,,0.00,VWS V14.01,2013-02-25 13:51:00,
2013-02-25 08:54:00,27.3,21.5,30.22,NE,37,3.0,3.0,79,0.00,,,0.00,VWS V14.01,2013-02-25 13:54:00,
2013-02-25 08:55:00,27.2,21.3,30.22,NE,46,3.0,3.0,78,0.00,,,0.00,VWS V14.01,2013-02-25 13:55:00,
2013-02-25 08:56:00,27.5,21.7,30.23,NE,39,2.5,3.0,79,0.00,,,0.00,VWS V14.01,2013-02-25 13:56:00,
2013-02-25 08:58:00,27.4,21.6,30.23,NE,39,3.0,3.0,78,0.00,,,0.00,VWS V14.01,2013-02-25 13:58:00,
2013-02-25 09:00:00,27.7,21.7,30.23,NE,55,2.7,2.7,78,0.00,,,0.00,VWS V14.01,2013-02-25 14:00:00,
2013-02-25 09:01:00,27.2,21.3,30.22,NE,42,3.0,3.0,78,0.00,,,0.00,VWS V14.01,2013-02-25 14:01:00,
2013-02-25 09:04:00,27.7,21.9,30.22,ENE,58,2.3,3.2,79,0.00,,,0.00,VWS V14.01,2013-02-25 14:04:00,
2013-02-25 09:05:00,28.4,22.3,30.23,NE,36,3.0,3.0,78,0.00,,,0.00,VWS V14.01,2013-02-25 14:05:00,
2013-02-25 09:06:00,27.9,21.6,30.23,NE,53,3.0,3.0,77,0.00,,,0.00,VWS V14.01,2013-02-25 14:06:00,
2013-02-25 09:07:00,28.2,21.9,30.22,NE,37,2.5,3.0,77,0.00,,,0.00,VWS V14.01,2013-02-25 14:07:00,
2013-02-25 09:09:00,29.2,22.8,30.22,East,89,2.8,3.7,77,0.00,,,0.00,VWS V14.01,2013-02-25 14:09:00,
2013-02-25 09:10:00,28.9,22.8,30.22,ENE,68,3.9,3.9,78,0.00,,,0.00,VWS V14.01,2013-02-25 14:10:00,
2013-02-25 09:12:00,29.5,22.8,30.23,ENE,67,2.5,3.2,76,0.00,,,0.00,VWS V14.01,2013-02-25 14:12:00,
2013-02-25 09:13:00,30.0,23.4,30.22,East,98,3.4,3.4,76,0.00,,,0.00,VWS V14.01,2013-02-25 14:13:00,
2013-02-25 09:16:00,28.9,22.5,30.21,ENE,77,3.9,3.9,76,0.00,,,0.00,VWS V14.01,2013-02-25 14:16:00,
2013-02-25 09:17:00,29.9,23.4,30.21,East,82,2.8,4.0,77,0.00,,,0.00,VWS V14.01,2013-02-25 14:17:00,
2013-02-25 09:18:00,28.8,22.1,30.21,East,85,4.2,4.4,76,0.00,,,0.00,VWS V14.01,2013-02-25 14:18:00,
2013-02-25 09:21:00,29.0,22.0,30.21,ENE,71,4.0,4.2,75,0.00,,,0.00,VWS V14.01,2013-02-25 14:21:00,
2013-02-25 09:23:00,29.2,22.2,30.21,ENE,72,4.4,4.4,75,0.00,,,0.00,VWS V14.01,2013-02-25 14:23:00,
2013-02-25 09:24:00,30.4,23.8,30.22,East,80,2.8,4.4,76,0.00,,,0.00,VWS V14.01,2013-02-25 14:24:00,
2013-02-25 09:26:00,29.7,22.4,30.23,East,91,4.5,4.5,74,0.00,,,0.00,VWS V14.01,2013-02-25 14:26:00,
2013-02-25 09:28:00,30.6,23.8,30.25,East,96,3.2,3.9,76,0.00,,,0.00,VWS V14.01,2013-02-25 14:28:00,
2013-02-25 09:29:00,30.1,23.0,30.22,East,87,3.7,3.7,74,0.00,,,0.00,VWS V14.01,2013-02-25 14:29:00,
2013-02-25 09:30:00,30.3,22.4,30.22,East,79,2.0,3.9,72,0.00,,,0.00,VWS V14.01,2013-02-25 14:30:00,
2013-02-25 09:33:00,30.5,23.0,30.21,East,99,4.4,4.5,73,0.00,,,0.00,VWS V14.01,2013-02-25 14:33:00,
2013-02-25 09:34:00,29.3,21.2,30.22,ESE,105,4.9,5.2,71,0.00,,,0.00,VWS V14.01,2013-02-25 14:34:00,
2013-02-25 09:35:00,30.2,22.6,30.21,SE,124,3.9,4.9,73,0.00,,,0.00,VWS V14.01,2013-02-25 14:35:00,
2013-02-25 09:39:00,30.8,23.4,30.21,East,90,3.7,4.4,74,0.00,,,0.00,VWS V14.01,2013-02-25 14:39:00,
2013-02-25 09:40:00,30.2,22.6,30.21,ESE,113,4.4,4.4,73,0.00,,,0.00,VWS V14.01,2013-02-25 14:40:00,
2013-02-25 09:44:00,30.0,21.6,30.20,ESE,106,4.5,4.5,71,0.00,,,0.00,VWS V14.01,2013-02-25 14:44:00,
2013-02-25 09:46:00,32.0,23.7,30.21,ESE,108,4.0,4.0,71,0.00,,,0.00,VWS V14.01,2013-02-25 14:46:00,
2013-02-25 09:48:00,30.6,21.5,30.21,East,92,4.4,4.4,69,0.00,,,0.00,VWS V14.01,2013-02-25 14:48:00,
2013-02-25 09:50:00,31.6,22.7,30.22,East,93,3.4,4.0,69,0.00,,,0.00,VWS V14.01,2013-02-25 14:50:00,
2013-02-25 09:52:00,31.9,22.8,30.21,ENE,78,2.0,3.4,69,0.00,,,0.00,VWS V14.01,2013-02-25 14:52:00,
2013-02-25 09:53:00,32.3,23.0,30.21,East,80,3.4,3.4,68,0.00,,,0.00,VWS V14.01,2013-02-25 14:53:00,
2013-02-25 09:55:00,30.6,20.9,30.20,ENE,63,3.9,3.9,67,0.00,,,0.00,VWS V14.01,2013-02-25 14:55:00,
2013-02-25 09:58:00,31.1,20.9,30.20,East,94,4.7,4.7,66,0.00,,,0.00,VWS V14.01,2013-02-25 14:58:00,
2013-02-25 10:00:00,31.8,21.8,30.20,East,93,2.5,3.2,66,0.00,,,0.00,VWS V14.01,2013-02-25 15:00:00,
2013-02-25 10:01:00,31.1,20.8,30.20,East,81,4.9,4.9,65,0.00,,,0.00,VWS V14.01,2013-02-25 15:01:00,
2013-02-25 10:04:00,32.1,21.7,30.19,East,87,5.4,5.9,65,0.00,,,0.00,VWS V14.01,2013-02-25 15:04:00,
2013-02-25 10:05:00,31.9,21.9,30.19,East,89,4.5,5.2,66,0.00,,,0.00,VWS V14.01,2013-02-25 15:05:00,
2013-02-25 10:06:00,31.9,21.9,30.19,East,89,4.5,5.2,66,0.00,,,0.00,VWS V14.01,2013-02-25 15:06:00,
2013-02-25 10:09:00,33.7,23.5,30.20,ESE,108,3.2,4.0,66,0.00,,,0.00,VWS V14.01,2013-02-25 15:09:00,
2013-02-25 10:10:00,32.2,21.1,30.19,ESE,106,3.5,4.7,63,0.00,,,0.00,VWS V14.01,2013-02-25 15:10:00,
2013-02-25 10:11:00,32.0,21.1,30.19,East,98,4.5,4.7,64,0.00,,,0.00,VWS V14.01,2013-02-25 15:11:00,
2013-02-25 10:14:00,33.6,22.1,30.18,East,101,3.0,4.5,62,0.00,,,0.00,VWS V14.01,2013-02-25 15:14:00,
2013-02-25 10:16:00,32.5,21.3,30.19,East,95,4.5,4.5,63,0.00,,,0.00,VWS V14.01,2013-02-25 15:16:00,
2013-02-25 10:18:00,33.0,21.2,30.19,ESE,109,3.5,3.5,62,0.00,,,0.00,VWS V14.01,2013-02-25 15:18:00,
2013-02-25 10:20:00,32.8,20.9,30.19,East,79,3.0,3.5,61,0.00,,,0.00,VWS V14.01,2013-02-25 15:20:00,
2013-02-25 10:21:00,33.3,21.2,30.19,NE,53,3.5,3.5,61,0.00,,,0.00,VWS V14.01,2013-02-25 15:21:00,
2013-02-25 10:22:00,34.7,22.7,30.19,ESE,111,3.0,3.4,61,0.00,,,0.00,VWS V14.01,2013-02-25 15:22:00,
2013-02-25 10:23:00,34.0,21.6,30.19,ESE,115,5.4,5.4,60,0.00,,,0.00,VWS V14.01,2013-02-25 15:23:00,
2013-02-25 10:26:00,34.1,21.5,30.19,ESE,116,3.0,3.0,60,0.00,,,0.00,VWS V14.01,2013-02-25 15:26:00,
2013-02-25 10:27:00,34.4,21.3,30.20,ESE,116,4.5,4.5,58,0.00,,,0.00,VWS V14.01,2013-02-25 15:27:00,
2013-02-25 10:30:00,35.3,21.7,30.18,SSE,156,4.5,6.3,57,0.00,,,0.00,VWS V14.01,2013-02-25 15:30:00,
2013-02-25 10:32:00,35.1,21.6,30.18,ESE,120,3.4,4.5,57,0.00,,,0.00,VWS V14.01,2013-02-25 15:32:00,
2013-02-25 10:34:00,34.4,20.7,30.18,SE,124,6.1,6.1,57,0.00,,,0.00,VWS V14.01,2013-02-25 15:34:00,
2013-02-25 10:36:00,35.1,21.5,30.19,SE,139,2.7,3.9,57,0.00,,,0.00,VWS V14.01,2013-02-25 15:36:00,
2013-02-25 10:37:00,36.9,23.4,30.18,SE,139,2.8,2.8,58,0.00,,,0.00,VWS V14.01,2013-02-25 15:37:00,
2013-02-25 10:38:00,34.1,20.2,30.19,East,90,3.9,3.9,56,0.00,,,0.00,VWS V14.01,2013-02-25 15:38:00,
2013-02-25 10:39:00,35.0,21.3,30.18,ESE,107,5.4,5.4,57,0.00,,,0.00,VWS V14.01,2013-02-25 15:39:00,
2013-02-25 10:41:00,34.2,19.0,30.18,ESE,112,5.9,6.9,53,0.00,,,0.00,VWS V14.01,2013-02-25 15:41:00,
2013-02-25 10:43:00,35.2,19.6,30.18,ESE,117,3.9,3.9,53,0.00,,,0.00,VWS V14.01,2013-02-25 15:43:00,
2013-02-25 10:45:00,35.5,19.8,30.19,East,90,3.9,3.9,53,0.00,,,0.00,VWS V14.01,2013-02-25 15:45:00,
2013-02-25 10:46:00,36.1,20.3,30.19,SSE,154,3.4,5.7,52,0.00,,,0.00,VWS V14.01,2013-02-25 15:46:00,
2013-02-25 10:49:00,35.2,17.5,30.18,SSE,162,6.4,6.4,48,0.00,,,0.00,VWS V14.01,2013-02-25 15:49:00,
2013-02-25 10:51:00,35.5,17.7,30.18,ESE,114,4.7,6.4,48,0.00,,,0.00,VWS V14.01,2013-02-25 15:51:00,
2013-02-25 10:54:00,35.9,18.6,30.19,South,183,3.0,4.0,49,0.00,,,0.00,VWS V14.01,2013-02-25 15:54:00,
2013-02-25 10:55:00,34.7,15.6,30.19,South,179,5.4,7.5,45,0.00,,,0.00,VWS V14.01,2013-02-25 15:55:00,
2013-02-25 10:56:00,35.1,16.0,30.20,SSE,158,5.2,5.4,45,0.00,,,0.00,VWS V14.01,2013-02-25 15:56:00,
2013-02-25 10:57:00,36.2,17.7,30.19,SSE,160,5.2,5.2,47,0.00,,,0.00,VWS V14.01,2013-02-25 15:57:00,
2013-02-25 10:59:00,34.8,16.2,30.18,SSE,153,6.9,6.9,46,0.00,,,0.00,VWS V14.01,2013-02-25 15:59:00,
2013-02-25 11:00:00,34.8,16.5,30.18,SE,142,6.1,6.1,47,0.00,,,0.00,VWS V14.01,2013-02-25 16:00:00,
2013-02-25 11:03:00,34.6,16.1,30.19,SE,142,8.0,8.0,46,0.00,,,0.00,VWS V14.01,2013-02-25 16:03:00,
2013-02-25 11:04:00,35.2,17.3,30.19,SE,137,6.6,6.6,48,0.00,,,0.00,VWS V14.01,2013-02-25 16:04:00,
2013-02-25 11:05:00,36.0,18.4,30.19,SSE,149,6.3,7.3,48,0.00,,,0.00,VWS V14.01,2013-02-25 16:05:00,
2013-02-25 11:06:00,35.2,16.2,30.20,SE,132,6.8,7.3,46,0.00,,,0.00,VWS V14.01,2013-02-25 16:06:00,
2013-02-25 11:08:00,37.1,19.7,30.19,SE,140,3.5,3.5,49,0.00,,,0.00,VWS V14.01,2013-02-25 16:08:00,
2013-02-25 11:10:00,36.6,19.3,30.19,ESE,122,4.4,5.6,49,0.00,,,0.00,VWS V14.01,2013-02-25 16:10:00,
2013-02-25 11:11:00,35.5,18.5,30.18,ESE,109,5.4,5.4,50,0.00,,,0.00,VWS V14.01,2013-02-25 16:11:00,
2013-02-25 11:13:00,35.1,17.8,30.19,SE,140,5.7,5.7,49,0.00,,,0.00,VWS V14.01,2013-02-25 16:13:00,
2013-02-25 11:14:00,35.1,17.8,30.19,SE,140,5.7,5.7,49,0.00,,,0.00,VWS V14.01,2013-02-25 16:14:00,
2013-02-25 11:16:00,35.5,18.0,30.19,ESE,118,6.9,6.9,49,0.00,,,0.00,VWS V14.01,2013-02-25 16:16:00,
2013-02-25 11:17:00,36.1,18.2,30.18,SE,133,5.2,6.9,48,0.00,,,0.00,VWS V14.01,2013-02-25 16:17:00,
2013-02-25 11:18:00,35.2,16.6,30.18,SSE,158,8.7,9.0,46,0.00,,,0.00,VWS V14.01,2013-02-25 16:18:00,
2013-02-25 11:20:00,35.6,16.8,30.19,South,169,7.3,8.7,46,0.00,,,0.00,VWS V14.01,2013-02-25 16:20:00,
2013-02-25 11:22:00,35.5,17.1,30.18,SSE,163,6.4,10.2,47,0.00,,,0.00,VWS V14.01,2013-02-25 16:22:00,
2013-02-25 11:23:00,35.8,16.0,30.19,SSE,154,4.4,6.4,44,0.00,,,0.00,VWS V14.01,2013-02-25 16:23:00,
2013-02-25 11:24:00,36.2,16.8,30.19,SSE,166,4.4,4.4,45,0.00,,,0.00,VWS V14.01,2013-02-25 16:24:00,
2013-02-25 11:27:00,35.3,16.3,30.18,East,99,5.6,7.3,45,0.00,,,0.00,VWS V14.01,2013-02-25 16:27:00,
2013-02-25 11:29:00,34.6,15.5,30.19,SE,127,6.9,6.9,45,0.00,,,0.00,VWS V14.01,2013-02-25 16:29:00,
2013-02-25 11:30:00,34.7,15.6,30.18,ESE,108,5.1,6.1,45,0.00,,,0.00,VWS V14.01,2013-02-25 16:30:00,
2013-02-25 11:33:00,35.2,16.2,30.19,ESE,118,7.6,7.6,45,0.00,,,0.00,VWS V14.01,2013-02-25 16:33:00,
2013-02-25 11:34:00,35.1,15.3,30.18,ESE,116,4.9,4.9,44,0.00,,,0.00,VWS V14.01,2013-02-25 16:34:00,
2013-02-25 11:35:00,35.4,15.6,30.19,South,191,5.6,6.4,44,0.00,,,0.00,VWS V14.01,2013-02-25 16:35:00,
2013-02-25 11:38:00,36.1,15.3,30.19,South,172,4.7,5.9,42,0.00,,,0.00,VWS V14.01,2013-02-25 16:38:00,
2013-02-25 11:41:00,35.0,14.4,30.19,ESE,120,4.4,4.4,42,0.00,,,0.00,VWS V14.01,2013-02-25 16:41:00,
2013-02-25 11:43:00,35.6,15.2,30.19,SE,139,6.8,9.2,43,0.00,,,0.00,VWS V14.01,2013-02-25 16:43:00,
2013-02-25 11:44:00,35.8,16.0,30.19,SSE,149,6.9,6.9,44,0.00,,,0.00,VWS V14.01,2013-02-25 16:44:00,
2013-02-25 11:46:00,35.4,15.5,30.18,SE,130,5.9,6.8,44,0.00,,,0.00,VWS V14.01,2013-02-25 16:46:00,
2013-02-25 11:49:00,35.3,15.6,30.19,South,184,4.2,4.5,44,0.00,,,0.00,VWS V14.01,2013-02-25 16:49:00,
2013-02-25 11:50:00,37.6,19.2,30.19,South,174,3.2,4.5,47,0.00,,,0.00,VWS V14.01,2013-02-25 16:50:00,
2013-02-25 11:51:00,36.2,17.2,30.19,SE,142,5.1,5.1,46,0.00,,,0.00,VWS V14.01,2013-02-25 16:51:00,
2013-02-25 11:52:00,36.2,17.2,30.19,SE,142,5.1,5.1,46,0.00,,,0.00,VWS V14.01,2013-02-25 16:52:00,
2013-02-25 11:55:00,35.0,15.8,30.18,ESE,116,6.4,6.4,45,0.00,,,0.00,VWS V14.01,2013-02-25 16:55:00,
2013-02-25 11:56:00,35.2,15.5,30.19,East,88,5.6,5.6,44,0.00,,,0.00,VWS V14.01,2013-02-25 16:56:00,
2013-02-25 11:58:00,37.3,18.9,30.18,ESE,120,6.6,8.0,47,0.00,,,0.00,VWS V14.01,2013-02-25 16:58:00,
2013-02-25 12:00:00,36.4,17.3,30.17,SE,145,4.7,8.1,45,0.00,,,0.00,VWS V14.01,2013-02-25 17:00:00,
2013-02-25 12:01:00,37.7,18.9,30.17,ESE,116,5.1,5.1,46,0.00,,,0.00,VWS V14.01,2013-02-25 17:01:00,
2013-02-25 12:03:00,36.5,16.8,30.18,ESE,104,7.1,7.8,44,0.00,,,0.00,VWS V14.01,2013-02-25 17:03:00,
2013-02-25 12:06:00,35.8,15.9,30.18,South,187,6.6,7.8,44,0.00,,,0.00,VWS V14.01,2013-02-25 17:06:00,
2013-02-25 12:08:00,35.2,14.9,30.18,South,190,4.9,7.8,43,0.00,,,0.00,VWS V14.01,2013-02-25 17:08:00,
2013-02-25 12:09:00,36.6,17.1,30.19,SSE,154,5.9,7.8,44,0.00,,,0.00,VWS V14.01,2013-02-25 17:09:00,
2013-02-25 12:11:00,35.5,15.3,30.20,SE,128,6.6,7.8,43,0.00,,,0.00,VWS V14.01,2013-02-25 17:11:00,
2013-02-25 12:12:00,37.7,18.9,30.17,SE,136,6.8,7.8,46,0.00,,,0.00,VWS V14.01,2013-02-25 17:12:00,
2013-02-25 12:14:00,36.7,17.6,30.17,SE,142,8.1,8.1,45,0.00,,,0.00,VWS V14.01,2013-02-25 17:14:00,
2013-02-25 12:15:00,35.9,15.9,30.17,SE,143,6.6,8.1,44,0.00,,,0.00,VWS V14.01,2013-02-25 17:15:00,
2013-02-25 12:17:00,36.0,16.2,30.17,SE,134,9.2,9.2,44,0.00,,,0.00,VWS V14.01,2013-02-25 17:17:00,
2013-02-25 12:18:00,36.7,17.4,30.17,SE,131,5.7,9.2,45,0.00,,,0.00,VWS V14.01,2013-02-25 17:18:00,
2013-02-25 12:20:00,36.2,16.3,30.17,SE,140,5.2,9.2,44,0.00,,,0.00,VWS V14.01,2013-02-25 17:20:00,
2013-02-25 12:23:00,36.5,15.9,30.16,ESE,111,3.9,9.2,42,0.00,,,0.00,VWS V14.01,2013-02-25 17:23:00,
2013-02-25 12:25:00,35.7,15.3,30.16,ESE,114,7.5,9.2,43,0.00,,,0.00,VWS V14.01,2013-02-25 17:25:00,
2013-02-25 12:27:00,36.0,15.7,30.17,ESE,114,3.9,9.2,43,0.00,,,0.00,VWS V14.01,2013-02-25 17:27:00,
2013-02-25 12:29:00,37.3,16.6,30.16,SE,140,6.6,9.2,43,0.00,,,0.00,VWS V14.01,2013-02-25 17:29:00,
2013-02-25 12:30:00,35.4,14.8,30.16,ESE,115,7.3,9.2,42,0.00,,,0.00,VWS V14.01,2013-02-25 17:30:00,
2013-02-25 12:32:00,36.8,17.2,30.16,ESE,122,6.1,9.2,44,0.00,,,0.00,VWS V14.01,2013-02-25 17:32:00,
2013-02-25 12:33:00,36.5,16.5,30.16,SE,134,7.8,9.2,44,0.00,,,0.00,VWS V14.01,2013-02-25 17:33:00,
2013-02-25 12:34:00,35.3,15.3,30.16,SE,137,7.1,9.2,44,0.00,,,0.00,VWS V14.01,2013-02-25 17:34:00,
2013-02-25 12:38:00,36.1,16.1,30.17,East,83,4.2,9.2,43,0.00,,,0.00,VWS V14.01,2013-02-25 17:38:00,
2013-02-25 12:39:00,35.9,16.0,30.16,SE,128,7.1,9.2,44,0.00,,,0.00,VWS V14.01,2013-02-25 17:39:00,
2013-02-25 12:43:00,36.1,16.7,30.16,SE,128,7.8,10.0,45,0.00,,,0.00,VWS V14.01,2013-02-25 17:43:00,
2013-02-25 12:44:00,36.7,17.6,30.16,ESE,103,8.1,10.0,45,0.00,,,0.00,VWS V14.01,2013-02-25 17:44:00,
2013-02-25 12:45:00,35.6,16.2,30.16,ESE,114,9.7,10.0,45,0.00,,,0.00,VWS V14.01,2013-02-25 17:45:00,
2013-02-25 12:47:00,35.5,16.2,30.16,East,96,5.2,10.0,45,0.00,,,0.00,VWS V14.01,2013-02-25 17:47:00,
2013-02-25 12:49:00,36.2,17.1,30.16,SE,146,4.9,10.0,45,0.00,,,0.00,VWS V14.01,2013-02-25 17:49:00,
2013-02-25 12:50:00,36.9,17.4,30.15,South,172,6.9,10.0,45,0.00,,,0.00,VWS V14.01,2013-02-25 17:50:00,
2013-02-25 12:54:00,35.7,14.9,30.15,ESE,108,6.6,10.0,42,0.00,,,0.00,VWS V14.01,2013-02-25 17:54:00,
2013-02-25 12:56:00,36.7,16.3,30.15,SE,135,6.9,10.0,43,0.00,,,0.00,VWS V14.01,2013-02-25 17:56:00,
2013-02-25 12:57:00,35.6,14.2,30.15,SE,125,8.8,10.0,41,0.00,,,0.00,VWS V14.01,2013-02-25 17:57:00,
2013-02-25 12:59:00,36.2,15.9,30.14,East,94,7.5,10.0,43,0.00,,,0.00,VWS V14.01,2013-02-25 17:59:00,
2013-02-25 13:01:00,36.1,15.3,30.13,SSE,156,6.8,10.0,42,0.00,,,0.00,VWS V14.01,2013-02-25 18:01:00,
2013-02-25 13:03:00,37.2,16.9,30.15,SSE,148,4.2,4.2,43,0.00,,,0.00,VWS V14.01,2013-02-25 18:03:00,
2013-02-25 13:04:00,37.9,17.8,30.14,SE,127,3.9,5.6,44,0.00,,,0.00,VWS V14.01,2013-02-25 18:04:00,
2013-02-25 13:07:00,37.2,17.8,30.14,East,92,7.6,7.6,45,0.00,,,0.00,VWS V14.01,2013-02-25 18:07:00,
2013-02-25 13:08:00,36.9,18.0,30.14,SE,132,6.4,7.6,46,0.00,,,0.00,VWS V14.01,2013-02-25 18:08:00,
2013-02-25 13:09:00,36.6,17.9,30.14,East,90,5.2,6.4,46,0.00,,,0.00,VWS V14.01,2013-02-25 18:09:00,
2013-02-25 13:11:00,36.9,18.1,30.14,SE,128,6.9,6.9,46,0.00,,,0.00,VWS V14.01,2013-02-25 18:11:00,
2013-02-25 13:14:00,37.0,17.1,30.12,ESE,112,6.3,7.5,44,0.00,,,0.00,VWS V14.01,2013-02-25 18:14:00,
2013-02-25 13:15:00,36.5,16.3,30.12,SE,133,4.5,6.3,43,0.00,,,0.00,VWS V14.01,2013-02-25 18:15:00,
2013-02-25 13:16:00,37.1,17.4,30.13,ESE,102,5.2,5.2,44,0.00,,,0.00,VWS V14.01,2013-02-25 18:16:00,
2013-02-25 13:20:00,36.3,15.8,30.13,SE,132,9.0,9.0,43,0.00,,,0.00,VWS V14.01,2013-02-25 18:20:00,
2013-02-25 13:21:00,36.7,16.3,30.12,SSE,152,6.3,7.8,43,0.00,,,0.00,VWS V14.01,2013-02-25 18:21:00,
2013-02-25 13:22:00,36.7,16.6,30.12,ENE,66,2.0,4.4,43,0.00,,,0.00,VWS V14.01,2013-02-25 18:22:00,
2013-02-25 13:25:00,37.1,16.8,30.12,SE,145,4.9,5.9,43,0.00,,,0.00,VWS V14.01,2013-02-25 18:25:00,
2013-02-25 13:26:00,38.4,18.9,30.11,East,81,6.6,6.8,45,0.00,,,0.00,VWS V14.01,2013-02-25 18:26:00,
2013-02-25 13:27:00,36.7,16.8,30.12,East,81,8.1,8.1,44,0.00,,,0.00,VWS V14.01,2013-02-25 18:27:00,
2013-02-25 13:29:00,35.7,16.3,30.12,East,87,10.4,10.4,45,0.00,,,0.00,VWS V14.01,2013-02-25 18:29:00,
2013-02-25 13:30:00,36.2,16.9,30.11,ESE,102,8.8,10.4,45,0.00,,,0.00,VWS V14.01,2013-02-25 18:30:00,
2013-02-25 13:31:00,38.3,20.3,30.12,ENE,71,7.8,7.8,48,0.00,,,0.00,VWS V14.01,2013-02-25 18:31:00,
2013-02-25 13:33:00,36.2,16.8,30.13,East,86,8.1,8.1,45,0.00,,,0.00,VWS V14.01,2013-02-25 18:33:00,
2013-02-25 13:34:00,36.3,17.2,30.12,East,100,9.7,9.7,45,0.00,,,0.00,VWS V14.01,2013-02-25 18:34:00,
2013-02-25 13:36:00,36.9,18.0,30.11,ESE,117,5.7,6.9,46,0.00,,,0.00,VWS V14.01,2013-02-25 18:36:00,
2013-02-25 13:38:00,36.8,18.5,30.12,East,98,7.6,7.6,47,0.00,,,0.00,VWS V14.01,2013-02-25 18:38:00,
2013-02-25 13:39:00,37.8,19.5,30.12,East,96,7.3,7.6,47,0.00,,,0.00,VWS V14.01,2013-02-25 18:39:00,
2013-02-25 13:40:00,36.5,17.4,30.12,ESE,103,10.0,10.0,45,0.00,,,0.00,VWS V14.01,2013-02-25 18:40:00,
2013-02-25 13:44:00,37.9,19.4,30.13,ENE,76,5.7,5.7,47,0.00,,,0.00,VWS V14.01,2013-02-25 18:44:00,
2013-02-25 13:45:00,37.5,19.1,30.13,ESE,109,5.4,5.7,47,0.00,,,0.00,VWS V14.01,2013-02-25 18:45:00,
2013-02-25 13:50:00,36.7,17.1,30.12,ENE,65,7.1,8.7,45,0.00,,,0.00,VWS V14.01,2013-02-25 18:50:00,
2013-02-25 13:51:00,36.1,16.0,30.12,ENE,67,6.4,8.7,44,0.00,,,0.00,VWS V14.01,2013-02-25 18:51:00,
2013-02-25 13:55:00,37.5,18.2,30.12,SSE,147,6.1,8.5,45,0.00,,,0.00,VWS V14.01,2013-02-25 18:55:00,
2013-02-25 13:56:00,38.4,20.1,30.12,SSE,162,5.2,6.1,47,0.00,,,0.00,VWS V14.01,2013-02-25 18:56:00,
2013-02-25 13:57:00,37.1,18.0,30.12,SE,140,5.7,5.7,46,0.00,,,0.00,VWS V14.01,2013-02-25 18:57:00,
2013-02-25 13:58:00,37.8,17.9,30.12,SSE,152,4.7,5.7,44,0.00,,,0.00,VWS V14.01,2013-02-25 18:58:00,
2013-02-25 14:02:00,37.1,17.5,30.12,SE,138,5.9,5.9,45,0.00,,,0.00,VWS V14.01,2013-02-25 19:02:00,
2013-02-25 14:04:00,37.2,17.7,30.12,ESE,116,5.9,6.8,45,0.00,,,0.00,VWS V14.01,2013-02-25 19:04:00,
2013-02-25 14:07:00,37.1,16.8,30.12,East,97,5.9,6.8,43,0.00,,,0.00,VWS V14.01,2013-02-25 19:07:00,
2013-02-25 14:09:00,38.6,18.6,30.11,ESE,105,4.5,6.8,44,0.00,,,0.00,VWS V14.01,2013-02-25 19:09:00,
2013-02-25 14:13:00,37.6,17.2,30.11,SSE,152,6.4,6.8,43,0.00,,,0.00,VWS V14.01,2013-02-25 19:13:00,
2013-02-25 14:14:00,37.7,17.1,30.12,SSE,148,5.7,6.8,43,0.00,,,0.00,VWS V14.01,2013-02-25 19:14:00,
2013-02-25 14:15:00,37.7,17.1,30.12,SSE,148,5.7,6.8,43,0.00,,,0.00,VWS V14.01,2013-02-25 19:15:00,
2013-02-25 14:18:00,37.0,17.4,30.11,ESE,115,8.3,8.3,45,0.00,,,0.00,VWS V14.01,2013-02-25 19:18:00,
2013-02-25 14:20:00,37.5,18.3,30.11,ESE,108,4.7,8.3,45,0.00,,,0.00,VWS V14.01,2013-02-25 19:20:00,
2013-02-25 14:21:00,36.6,16.6,30.11,East,97,4.9,8.3,44,0.00,,,0.00,VWS V14.01,2013-02-25 19:21:00,
2013-02-25 14:23:00,38.3,18.7,30.11,ESE,112,2.7,8.3,45,0.00,,,0.00,VWS V14.01,2013-02-25 19:23:00,
2013-02-25 14:25:00,37.3,18.0,30.11,ESE,119,9.3,9.3,45,0.00,,,0.00,VWS V14.01,2013-02-25 19:25:00,
2013-02-25 14:27:00,39.4,21.9,30.10,East,85,5.6,9.3,49,0.00,,,0.00,VWS V14.01,2013-02-25 19:27:00,
2013-02-25 14:28:00,37.6,18.3,30.11,East,81,5.4,9.3,45,0.00,,,0.00,VWS V14.01,2013-02-25 19:28:00,
2013-02-25 14:30:00,36.5,17.0,30.10,East,98,7.8,9.3,45,0.00,,,0.00,VWS V14.01,2013-02-25 19:30:00,
2013-02-25 14:32:00,36.8,17.7,30.11,ESE,102,5.4,9.3,45,0.00,,,0.00,VWS V14.01,2013-02-25 19:32:00,
2013-02-25 14:34:00,37.1,16.9,30.11,ENE,74,5.2,9.3,43,0.00,,,0.00,VWS V14.01,2013-02-25 19:34:00,
2013-02-25 14:35:00,38.4,15.8,30.11,NE,56,7.8,9.3,39,0.00,,,0.00,VWS V14.01,2013-02-25 19:35:00,
2013-02-25 14:37:00,37.9,18.7,30.11,SE,135,6.4,9.3,45,0.00,,,0.00,VWS V14.01,2013-02-25 19:37:00,
2013-02-25 14:39:00,38.3,19.5,30.12,ESE,122,6.8,9.3,46,0.00,,,0.00,VWS V14.01,2013-02-25 19:39:00,
2013-02-25 14:40:00,37.7,17.9,30.11,SE,125,2.7,9.3,44,0.00,,,0.00,VWS V14.01,2013-02-25 19:40:00,
2013-02-25 14:43:00,37.4,18.6,30.11,East,95,6.6,9.3,46,0.00,,,0.00,VWS V14.01,2013-02-25 19:43:00,
2013-02-25 14:45:00,36.8,18.5,30.11,ENE,71,3.4,9.3,47,0.00,,,0.00,VWS V14.01,2013-02-25 19:45:00,
2013-02-25 14:48:00,38.1,18.7,30.10,ESE,112,3.2,9.3,45,0.00,,,0.00,VWS V14.01,2013-02-25 19:48:00,
2013-02-25 14:49:00,37.5,18.1,30.10,ESE,111,5.4,9.3,45,0.00,,,0.00,VWS V14.01,2013-02-25 19:49:00,
2013-02-25 14:51:00,38.0,18.5,30.12,SE,135,7.3,9.3,45,0.00,,,0.00,VWS V14.01,2013-02-25 19:51:00,
2013-02-25 14:54:00,38.0,17.0,30.11,SSE,157,3.9,9.3,42,0.00,,,0.00,VWS V14.01,2013-02-25 19:54:00,
2013-02-25 14:55:00,39.8,19.3,30.11,SE,133,0.0,9.3,43,0.00,,,0.00,VWS V14.01,2013-02-25 19:55:00,
2013-02-25 14:56:00,40.8,19.1,30.10,SE,133,0.0,9.3,41,0.00,,,0.00,VWS V14.01,2013-02-25 19:56:00,
2013-02-25 14:59:00,39.8,18.9,30.11,SSE,166,3.7,9.3,43,0.00,,,0.00,VWS V14.01,2013-02-25 19:59:00,
2013-02-25 15:00:00,38.4,17.4,30.11,ESE,109,3.5,3.5,42,0.00,,,0.00,VWS V14.01,2013-02-25 20:00:00,
2013-02-25 15:01:00,39.0,17.8,30.12,ESE,105,2.3,3.5,42,0.00,,,0.00,VWS V14.01,2013-02-25 20:01:00,
2013-02-25 15:03:00,38.6,18.1,30.12,SE,129,7.3,7.3,43,0.00,,,0.00,VWS V14.01,2013-02-25 20:03:00,
2013-02-25 15:05:00,39.1,20.0,30.11,SE,141,5.7,7.3,46,0.00,,,0.00,VWS V14.01,2013-02-25 20:05:00,
2013-02-25 15:07:00,38.1,18.0,30.12,ESE,111,3.4,7.3,44,0.00,,,0.00,VWS V14.01,2013-02-25 20:07:00,
2013-02-25 15:10:00,37.0,18.0,30.12,ESE,108,7.3,7.3,46,0.00,,,0.00,VWS V14.01,2013-02-25 20:10:00,
2013-02-25 15:11:00,37.0,18.0,30.12,ESE,108,7.3,7.3,46,0.00,,,0.00,VWS V14.01,2013-02-25 20:11:00,
2013-02-25 15:12:00,38.1,19.5,30.11,ESE,109,3.9,7.3,47,0.00,,,0.00,VWS V14.01,2013-02-25 20:12:00,
2013-02-25 15:13:00,37.9,17.1,30.11,East,99,5.1,7.3,42,0.00,,,0.00,VWS V14.01,2013-02-25 20:13:00,
2013-02-25 15:16:00,37.6,17.9,30.12,ESE,117,4.7,7.3,44,0.00,,,0.00,VWS V14.01,2013-02-25 20:16:00,
2013-02-25 15:18:00,38.0,19.0,30.12,SSE,156,4.4,7.3,46,0.00,,,0.00,VWS V14.01,2013-02-25 20:18:00,
2013-02-25 15:20:00,37.7,19.1,30.11,SE,138,4.4,7.3,47,0.00,,,0.00,VWS V14.01,2013-02-25 20:20:00,
2013-02-25 15:22:00,37.0,18.5,30.12,ESE,123,4.4,7.3,47,0.00,,,0.00,VWS V14.01,2013-02-25 20:22:00,
2013-02-25 15:23:00,37.9,19.9,30.11,SSE,149,3.5,7.3,48,0.00,,,0.00,VWS V14.01,2013-02-25 20:23:00,
2013-02-25 15:25:00,38.2,19.7,30.11,ESE,102,5.4,7.3,47,0.00,,,0.00,VWS V14.01,2013-02-25 20:25:00,
2013-02-25 15:27:00,38.2,19.5,30.15,NE,35,4.7,7.3,47,0.00,,,0.00,VWS V14.01,2013-02-25 20:27:00,
2013-02-25 15:28:00,37.7,18.7,30.12,ENE,60,7.3,7.3,46,0.00,,,0.00,VWS V14.01,2013-02-25 20:28:00,
2013-02-25 15:31:00,37.9,19.0,30.12,ESE,110,5.6,7.3,46,0.00,,,0.00,VWS V14.01,2013-02-25 20:31:00,
2013-02-25 15:32:00,37.7,18.9,30.12,ENE,78,4.5,7.3,46,0.00,,,0.00,VWS V14.01,2013-02-25 20:32:00,
2013-02-25 15:33:00,37.3,19.5,30.11,ESE,120,7.8,7.8,48,0.00,,,0.00,VWS V14.01,2013-02-25 20:33:00,
2013-02-25 15:34:00,37.6,19.7,30.11,ENE,60,3.0,7.8,48,0.00,,,0.00,VWS V14.01,2013-02-25 20:34:00,
2013-02-25 15:36:00,38.8,20.0,30.11,NNE,29,2.8,7.8,47,0.00,,,0.00,VWS V14.01,2013-02-25 20:36:00,
2013-02-25 15:38:00,38.2,18.8,30.14,NE,37,4.0,7.8,45,0.00,,,0.00,VWS V14.01,2013-02-25 20:38:00,
2013-02-25 15:39:00,38.3,19.0,30.12,NE,53,3.9,7.8,45,0.00,,,0.00,VWS V14.01,2013-02-25 20:39:00,
2013-02-25 15:40:00,39.4,21.3,30.12,SE,129,7.1,7.8,48,0.00,,,0.00,VWS V14.01,2013-02-25 20:40:00,
2013-02-25 15:42:00,37.2,18.6,30.11,East,80,9.2,9.2,47,0.00,,,0.00,VWS V14.01,2013-02-25 20:42:00,
2013-02-25 15:43:00,38.7,20.5,30.15,ENE,58,7.3,9.2,48,0.00,,,0.00,VWS V14.01,2013-02-25 20:43:00,
2013-02-25 15:44:00,37.7,19.0,30.11,ENE,66,8.0,9.2,46,0.00,,,0.00,VWS V14.01,2013-02-25 20:44:00,
2013-02-25 15:45:00,37.9,18.9,30.11,ENE,57,5.6,9.2,46,0.00,,,0.00,VWS V14.01,2013-02-25 20:45:00,
2013-02-25 15:48:00,38.4,19.5,30.10,East,86,6.8,9.2,46,0.00,,,0.00,VWS V14.01,2013-02-25 20:48:00,
2013-02-25 15:49:00,39.0,19.8,30.11,ENE,78,5.1,9.2,46,0.00,,,0.00,VWS V14.01,2013-02-25 20:49:00,
2013-02-25 15:51:00,37.2,18.2,30.11,ENE,71,7.6,9.2,46,0.00,,,0.00,VWS V14.01,2013-02-25 20:51:00,
2013-02-25 15:52:00,37.1,18.1,30.11,East,92,9.7,9.7,46,0.00,,,0.00,VWS V14.01,2013-02-25 20:52:00,
2013-02-25 15:55:00,38.3,20.6,30.11,ENE,78,9.0,9.7,48,0.00,,,0.00,VWS V14.01,2013-02-25 20:55:00,
2013-02-25 15:57:00,37.8,19.9,30.11,ENE,73,9.0,9.7,48,0.00,,,0.00,VWS V14.01,2013-02-25 20:57:00,
2013-02-25 16:01:00,37.8,20.0,30.11,ENE,78,4.2,9.7,48,0.00,,,0.00,VWS V14.01,2013-02-25 21:01:00,
2013-02-25 16:02:00,38.0,20.0,30.11,ENE,70,5.1,5.1,48,0.00,,,0.00,VWS V14.01,2013-02-25 21:02:00,
2013-02-25 16:03:00,37.9,19.9,30.10,NE,56,5.9,5.9,48,0.00,,,0.00,VWS V14.01,2013-02-25 21:03:00,
2013-02-25 16:08:00,37.8,19.9,30.10,ESE,103,6.4,7.8,48,0.00,,,0.00,VWS V14.01,2013-02-25 21:08:00,
2013-02-25 16:09:00,37.4,19.1,30.10,ESE,102,7.3,7.3,47,0.00,,,0.00,VWS V14.01,2013-02-25 21:09:00,
2013-02-25 16:11:00,38.1,20.6,30.10,East,100,6.3,7.6,49,0.00,,,0.00,VWS V14.01,2013-02-25 21:11:00,
2013-02-25 16:13:00,37.4,19.7,30.09,East,90,8.0,8.1,48,0.00,,,0.00,VWS V14.01,2013-02-25 21:13:00,
2013-02-25 16:14:00,37.6,20.0,30.10,East,89,6.8,8.0,49,0.00,,,0.00,VWS V14.01,2013-02-25 21:14:00,
2013-02-25 16:15:00,37.7,20.3,30.10,East,98,9.2,9.2,49,0.00,,,0.00,VWS V14.01,2013-02-25 21:15:00,
2013-02-25 16:17:00,38.5,21.2,30.13,East,92,8.0,9.2,49,0.00,,,0.00,VWS V14.01,2013-02-25 21:17:00,
2013-02-25 16:19:00,38.5,21.3,30.10,East,89,7.1,7.1,50,0.00,,,0.00,VWS V14.01,2013-02-25 21:19:00,
2013-02-25 16:20:00,38.8,21.7,30.10,East,97,7.5,7.5,50,0.00,,,0.00,VWS V14.01,2013-02-25 21:20:00,
2013-02-25 16:21:00,37.9,20.1,30.11,East,99,8.3,8.3,48,0.00,,,0.00,VWS V14.01,2013-02-25 21:21:00,
2013-02-25 16:22:00,37.7,20.2,30.11,ESE,112,8.3,8.3,49,0.00,,,0.00,VWS V14.01,2013-02-25 21:22:00,
2013-02-25 16:25:00,37.9,20.0,30.10,ESE,107,7.1,7.1,48,0.00,,,0.00,VWS V14.01,2013-02-25 21:25:00,
2013-02-25 16:26:00,39.0,22.0,30.10,East,101,6.1,7.1,50,0.00,,,0.00,VWS V14.01,2013-02-25 21:26:00,
2013-02-25 16:27:00,37.9,19.9,30.11,East,86,7.3,7.3,48,0.00,,,0.00,VWS V14.01,2013-02-25 21:27:00,
2013-02-25 16:31:00,38.5,20.2,30.09,East,80,7.6,7.6,47,0.00,,,0.00,VWS V14.01,2013-02-25 21:31:00,
2013-02-25 16:32:00,37.9,19.4,30.10,ESE,114,7.5,8.5,47,0.00,,,0.00,VWS V14.01,2013-02-25 21:32:00,
2013-02-25 16:36:00,38.0,19.3,30.10,ESE,115,7.1,7.1,47,0.00,,,0.00,VWS V14.01,2013-02-25 21:36:00,
2013-02-25 16:37:00,38.4,19.5,30.10,SSE,151,3.0,7.1,46,0.00,,,0.00,VWS V14.01,2013-02-25 21:37:00,
2013-02-25 16:38:00,38.7,20.1,30.10,ESE,115,6.1,6.1,47,0.00,,,0.00,VWS V14.01,2013-02-25 21:38:00,
2013-02-25 16:41:00,38.0,20.1,30.09,East,84,8.0,8.0,48,0.00,,,0.00,VWS V14.01,2013-02-25 21:41:00,
2013-02-25 16:43:00,38.3,20.6,30.10,East,84,6.1,9.2,48,0.00,,,0.00,VWS V14.01,2013-02-25 21:43:00,
2013-02-25 16:44:00,37.8,20.0,30.10,East,92,8.5,8.5,48,0.00,,,0.00,VWS V14.01,2013-02-25 21:44:00,
2013-02-25 16:48:00,37.6,18.7,30.09,East,99,8.7,8.7,46,0.00,,,0.00,VWS V14.01,2013-02-25 21:48:00,
2013-02-25 16:49:00,38.1,20.0,30.09,East,94,6.3,8.7,48,0.00,,,0.00,VWS V14.01,2013-02-25 21:49:00,
2013-02-25 16:50:00,38.4,20.6,30.09,ESE,107,5.7,6.3,48,0.00,,,0.00,VWS V14.01,2013-02-25 21:50:00,
2013-02-25 16:51:00,38.6,20.9,30.09,East,95,5.2,7.1,49,0.00,,,0.00,VWS V14.01,2013-02-25 21:51:00,
2013-02-25 16:54:00,38.1,20.7,30.10,ESE,119,6.4,8.1,49,0.00,,,0.00,VWS V14.01,2013-02-25 21:54:00,
2013-02-25 16:55:00,38.4,21.3,30.10,East,94,6.3,6.4,50,0.00,,,0.00,VWS V14.01,2013-02-25 21:55:00,
2013-02-25 16:56:00,37.8,20.1,30.09,East,100,8.5,8.5,48,0.00,,,0.00,VWS V14.01,2013-02-25 21:56:00,
2013-02-25 16:58:00,37.8,19.9,30.09,ENE,77,8.0,8.0,48,0.00,,,0.00,VWS V14.01,2013-02-25 21:58:00,
2013-02-25 17:00:00,37.7,19.4,30.10,ESE,115,8.5,8.5,47,0.00,,,0.00,VWS V14.01,2013-02-25 22:00:00,
2013-02-25 17:02:00,38.0,20.3,30.09,SE,141,6.4,6.9,48,0.00,,,0.00,VWS V14.01,2013-02-25 22:02:00,
2013-02-25 17:03:00,37.9,20.1,30.10,East,98,5.1,6.6,48,0.00,,,0.00,VWS V14.01,2013-02-25 22:03:00,
2013-02-25 17:05:00,38.0,20.5,30.10,East,98,6.6,6.6,49,0.00,,,0.00,VWS V14.01,2013-02-25 22:05:00,
2013-02-25 17:07:00,38.0,20.1,30.09,East,96,5.6,6.3,48,0.00,,,0.00,VWS V14.01,2013-02-25 22:07:00,
2013-02-25 17:09:00,37.7,20.1,30.09,East,90,6.1,7.1,49,0.00,,,0.00,VWS V14.01,2013-02-25 22:09:00,
2013-02-25 17:12:00,37.9,20.3,30.09,ESE,103,5.9,8.7,49,0.00,,,0.00,VWS V14.01,2013-02-25 22:12:00,
2013-02-25 17:14:00,38.3,21.5,30.13,ESE,122,3.5,6.3,50,0.00,,,0.00,VWS V14.01,2013-02-25 22:14:00,
2013-02-25 17:16:00,38.1,21.5,30.10,ESE,116,4.5,5.7,51,0.00,,,0.00,VWS V14.01,2013-02-25 22:16:00,
2013-02-25 17:17:00,37.9,20.6,30.10,SE,132,8.7,8.7,49,0.00,,,0.00,VWS V14.01,2013-02-25 22:17:00,
2013-02-25 17:18:00,37.9,20.6,30.10,SE,132,8.7,8.7,49,0.00,,,0.00,VWS V14.01,2013-02-25 22:18:00,
2013-02-25 17:20:00,37.6,20.3,30.10,ESE,104,6.3,6.3,49,0.00,,,0.00,VWS V14.01,2013-02-25 22:20:00,
2013-02-25 17:22:00,37.6,21.4,30.09,East,81,5.1,8.0,51,0.00,,,0.00,VWS V14.01,2013-02-25 22:22:00,
2013-02-25 17:23:00,37.6,21.0,30.09,East,92,8.1,8.1,51,0.00,,,0.00,VWS V14.01,2013-02-25 22:23:00,
2013-02-25 17:25:00,37.6,21.1,30.09,East,82,6.3,6.3,51,0.00,,,0.00,VWS V14.01,2013-02-25 22:25:00,
2013-02-25 17:28:00,37.5,21.2,30.09,ENE,65,4.9,5.9,51,0.00,,,0.00,VWS V14.01,2013-02-25 22:28:00,
2013-02-25 17:29:00,37.5,20.6,30.09,East,85,6.4,6.9,50,0.00,,,0.00,VWS V14.01,2013-02-25 22:29:00,
2013-02-25 17:31:00,37.3,21.1,30.10,East,91,5.1,5.4,52,0.00,,,0.00,VWS V14.01,2013-02-25 22:31:00,
2013-02-25 17:32:00,37.3,21.3,30.10,East,80,5.6,7.3,52,0.00,,,0.00,VWS V14.01,2013-02-25 22:32:00,
2013-02-25 17:34:00,37.3,21.3,30.10,East,83,7.1,7.1,52,0.00,,,0.00,VWS V14.01,2013-02-25 22:34:00,
2013-02-25 17:35:00,36.9,21.9,30.10,East,94,4.4,6.6,54,0.00,,,0.00,VWS V14.01,2013-02-25 22:35:00,
2013-02-25 17:36:00,36.9,22.1,30.09,ESE,107,4.5,4.5,55,0.00,,,0.00,VWS V14.01,2013-02-25 22:36:00,
2013-02-25 17:39:00,36.5,22.2,30.09,East,81,5.4,5.4,56,0.00,,,0.00,VWS V14.01,2013-02-25 22:39:00,
2013-02-25 17:40:00,36.5,22.5,30.10,East,95,4.4,5.9,56,0.00,,,0.00,VWS V14.01,2013-02-25 22:40:00,
2013-02-25 17:41:00,36.5,22.4,30.09,East,93,5.7,5.9,56,0.00,,,0.00,VWS V14.01,2013-02-25 22:41:00,
2013-02-25 17:44:00,36.4,22.7,30.10,East,89,4.0,4.0,57,0.00,,,0.00,VWS V14.01,2013-02-25 22:44:00,
2013-02-25 17:46:00,36.4,22.6,30.10,ENE,72,3.7,3.7,57,0.00,,,0.00,VWS V14.01,2013-02-25 22:46:00,
2013-02-25 17:50:00,36.6,21.9,30.10,East,86,4.7,4.7,55,0.00,,,0.00,VWS V14.01,2013-02-25 22:50:00,
2013-02-25 17:52:00,36.5,21.2,30.09,ENE,61,4.4,4.5,53,0.00,,,0.00,VWS V14.01,2013-02-25 22:52:00,
2013-02-25 17:53:00,36.8,21.6,30.10,ENE,73,3.7,4.7,54,0.00,,,0.00,VWS V14.01,2013-02-25 22:53:00,
2013-02-25 17:57:00,36.8,21.3,30.10,ENE,61,2.8,4.9,53,0.00,,,0.00,VWS V14.01,2013-02-25 22:57:00,
2013-02-25 17:58:00,36.6,21.4,30.11,East,80,2.8,3.7,54,0.00,,,0.00,VWS V14.01,2013-02-25 22:58:00,
2013-02-25 17:59:00,36.6,21.5,30.11,East,80,2.2,2.8,54,0.00,,,0.00,VWS V14.01,2013-02-25 22:59:00,
2013-02-25 18:03:00,36.5,22.0,30.09,ENE,63,2.5,2.7,55,0.00,,,0.00,VWS V14.01,2013-02-25 23:03:00,
2013-02-25 18:04:00,36.1,21.8,30.09,East,81,3.7,3.7,56,0.00,,,0.00,VWS V14.01,2013-02-25 23:04:00,
2013-02-25 18:06:00,36.5,22.6,30.09,NE,56,4.0,4.0,57,0.00,,,0.00,VWS V14.01,2013-02-25 23:06:00,
2013-02-25 18:08:00,36.2,22.3,30.09,ENE,57,3.0,4.5,57,0.00,,,0.00,VWS V14.01,2013-02-25 23:08:00,
2013-02-25 18:09:00,35.9,22.1,30.09,ENE,57,2.3,3.0,57,0.00,,,0.00,VWS V14.01,2013-02-25 23:09:00,
2013-02-25 18:11:00,36.1,22.5,30.10,NE,39,3.7,3.7,57,0.00,,,0.00,VWS V14.01,2013-02-25 23:11:00,
2013-02-25 18:12:00,36.0,22.4,30.11,ENE,57,3.0,3.0,57,0.00,,,0.00,VWS V14.01,2013-02-25 23:12:00,
2013-02-25 18:14:00,36.3,22.8,30.11,NE,48,4.5,4.5,58,0.00,,,0.00,VWS V14.01,2013-02-25 23:14:00,
2013-02-25 18:18:00,35.9,22.8,30.11,ENE,63,4.7,4.7,58,0.00,,,0.00,VWS V14.01,2013-02-25 23:18:00,
2013-02-25 18:19:00,35.9,22.8,30.11,ENE,63,4.7,4.7,58,0.00,,,0.00,VWS V14.01,2013-02-25 23:19:00,
2013-02-25 18:20:00,36.1,22.8,30.10,ENE,68,3.2,4.7,58,0.00,,,0.00,VWS V14.01,2013-02-25 23:20:00,
2013-02-25 18:23:00,35.8,23.1,30.11,ENE,78,3.5,3.5,60,0.00,,,0.00,VWS V14.01,2013-02-25 23:23:00,
2013-02-25 18:24:00,35.4,22.7,30.11,ENE,66,2.3,2.7,59,0.00,,,0.00,VWS V14.01,2013-02-25 23:24:00,
2013-02-25 18:25:00,34.8,22.2,30.10,ENE,61,0.0,1.5,60,0.00,,,0.00,VWS V14.01,2013-02-25 23:25:00,
2013-02-25 18:29:00,34.6,22.6,30.15,ENE,67,0.0,1.8,61,0.00,,,0.00,VWS V14.01,2013-02-25 23:29:00,
2013-02-25 18:31:00,34.8,23.0,30.11,ENE,64,1.3,1.3,62,0.00,,,0.00,VWS V14.01,2013-02-25 23:31:00,
2013-02-25 18:35:00,35.0,23.5,30.12,ENE,61,2.5,2.7,63,0.00,,,0.00,VWS V14.01,2013-02-25 23:35:00,
2013-02-25 18:36:00,33.5,22.2,30.11,NE,54,1.5,2.5,63,0.00,,,0.00,VWS V14.01,2013-02-25 23:36:00,
2013-02-25 18:37:00,33.7,22.5,30.11,NE,47,0.0,1.5,63,0.00,,,0.00,VWS V14.01,2013-02-25 23:37:00,
2013-02-25 18:41:00,33.8,22.5,30.13,NE,45,2.3,2.7,63,0.00,,,0.00,VWS V14.01,2013-02-25 23:41:00,
2013-02-25 18:43:00,32.5,21.6,30.12,ENE,59,1.8,3.0,64,0.00,,,0.00,VWS V14.01,2013-02-25 23:43:00,
2013-02-25 18:44:00,31.8,21.3,30.12,East,79,1.8,3.0,65,0.00,,,0.00,VWS V14.01,2013-02-25 23:44:00,
2013-02-25 18:46:00,34.2,23.9,30.11,East,101,4.0,4.0,66,0.00,,,0.00,VWS V14.01,2013-02-25 23:46:00,
2013-02-25 18:49:00,34.0,23.6,30.12,East,90,4.4,4.7,65,0.00,,,0.00,VWS V14.01,2013-02-25 23:49:00,
2013-02-25 18:51:00,33.0,22.9,30.12,East,91,3.9,5.9,66,0.00,,,0.00,VWS V14.01,2013-02-25 23:51:00,
2013-02-25 18:52:00,33.7,23.6,30.12,ENE,60,3.5,3.9,66,0.00,,,0.00,VWS V14.01,2013-02-25 23:52:00,
2013-02-25 18:55:00,34.1,24.7,30.11,ENE,67,4.2,4.2,68,0.00,,,0.00,VWS V14.01,2013-02-25 23:55:00,
2013-02-25 18:56:00,33.6,24.8,30.11,East,89,4.4,4.4,70,0.00,,,0.00,VWS V14.01,2013-02-25 23:56:00,
2013-02-25 18:57:00,33.3,24.5,30.11,East,84,4.2,4.4,70,0.00,,,0.00,VWS V14.01,2013-02-25 23:57:00,
2013-02-25 18:58:00,32.9,24.0,30.12,East,91,3.5,4.5,70,0.00,,,0.00,VWS V14.01,2013-02-25 23:58:00,
2013-02-25 19:01:00,33.4,25.0,30.12,East,79,3.5,3.7,71,0.00,,,0.00,VWS V14.01,2013-02-26 00:01:00,
2013-02-25 19:02:00,33.3,25.0,30.12,East,84,4.2,4.2,71,0.00,,,0.00,VWS V14.01,2013-02-26 00:02:00,
2013-02-25 19:03:00,33.6,25.3,30.15,East,84,4.4,4.4,71,0.00,,,0.00,VWS V14.01,2013-02-26 00:03:00,
2013-02-25 19:04:00,32.8,24.6,30.12,East,87,3.7,4.4,71,0.00,,,0.00,VWS V14.01,2013-02-26 00:04:00,
2013-02-25 19:06:00,33.5,25.2,30.12,East,98,4.7,5.9,71,0.00,,,0.00,VWS V14.01,2013-02-26 00:06:00,
2013-02-25 19:08:00,32.9,24.6,30.12,East,91,4.0,4.7,71,0.00,,,0.00,VWS V14.01,2013-02-26 00:08:00,
2013-02-25 19:09:00,33.3,25.3,30.12,East,91,4.7,4.9,72,0.00,,,0.00,VWS V14.01,2013-02-26 00:09:00,
2013-02-25 19:12:00,33.7,25.2,30.16,ENE,73,6.6,9.2,71,0.00,,,0.00,VWS V14.01,2013-02-26 00:12:00,
2013-02-25 19:14:00,34.0,25.5,30.12,ENE,72,6.4,6.9,70,0.00,,,0.00,VWS V14.01,2013-02-26 00:14:00,
2013-02-25 19:15:00,34.0,25.4,30.12,East,93,7.6,9.0,70,0.00,,,0.00,VWS V14.01,2013-02-26 00:15:00,
2013-02-25 19:18:00,33.1,24.7,30.12,ENE,72,6.3,6.3,71,0.00,,,0.00,VWS V14.01,2013-02-26 00:18:00,
2013-02-25 19:20:00,33.7,25.2,30.13,ENE,61,6.6,6.6,71,0.00,,,0.00,VWS V14.01,2013-02-26 00:20:00,
2013-02-25 19:23:00,33.4,25.3,30.12,ENE,76,6.4,6.4,72,0.00,,,0.00,VWS V14.01,2013-02-26 00:23:00,
2013-02-25 19:25:00,33.6,25.7,30.11,ENE,71,5.1,6.4,73,0.00,,,0.00,VWS V14.01,2013-02-26 00:25:00,
2013-02-25 19:26:00,33.6,25.7,30.11,ENE,71,5.1,6.4,73,0.00,,,0.00,VWS V14.01,2013-02-26 00:26:00,
2013-02-25 19:29:00,33.5,25.8,30.11,ENE,59,9.2,9.2,73,0.00,,,0.00,VWS V14.01,2013-02-26 00:29:00,
2013-02-25 19:31:00,33.4,25.4,30.11,East,92,8.1,9.7,72,0.00,,,0.00,VWS V14.01,2013-02-26 00:31:00,
2013-02-25 19:33:00,33.1,25.4,30.10,ENE,67,7.1,8.1,73,0.00,,,0.00,VWS V14.01,2013-02-26 00:33:00,
2013-02-25 19:35:00,32.9,25.4,30.09,ENE,74,7.6,7.8,74,0.00,,,0.00,VWS V14.01,2013-02-26 00:35:00,
2013-02-25 19:37:00,33.0,25.3,30.09,East,87,5.4,9.2,73,0.00,,,0.00,VWS V14.01,2013-02-26 00:37:00,
2013-02-25 19:38:00,32.6,24.9,30.10,East,81,6.1,6.1,73,0.00,,,0.00,VWS V14.01,2013-02-26 00:38:00,
2013-02-25 19:39:00,32.9,25.4,30.10,ENE,72,7.5,7.5,73,0.00,,,0.00,VWS V14.01,2013-02-26 00:39:00,
2013-02-25 19:40:00,32.8,25.3,30.09,East,81,10.2,10.2,73,0.00,,,0.00,VWS V14.01,2013-02-26 00:40:00,
2013-02-25 19:42:00,32.6,25.1,30.10,East,84,6.8,6.8,74,0.00,,,0.00,VWS V14.01,2013-02-26 00:42:00,
2013-02-25 19:43:00,32.4,24.9,30.10,East,85,7.3,7.3,74,0.00,,,0.00,VWS V14.01,2013-02-26 00:43:00,
2013-02-25 19:44:00,32.5,25.1,30.10,East,84,5.9,7.3,74,0.00,,,0.00,VWS V14.01,2013-02-26 00:44:00,
2013-02-25 19:45:00,33.0,25.5,30.09,East,86,10.4,10.4,73,0.00,,,0.00,VWS V14.01,2013-02-26 00:45:00,
2013-02-25 19:47:00,32.2,24.5,30.10,ENE,74,6.6,10.7,73,0.00,,,0.00,VWS V14.01,2013-02-26 00:47:00,
2013-02-25 19:49:00,32.5,24.9,30.15,East,90,8.5,8.5,73,0.00,,,0.00,VWS V14.01,2013-02-26 00:49:00,
2013-02-25 19:53:00,32.5,24.5,30.10,ESE,109,8.3,10.2,72,0.00,,,0.00,VWS V14.01,2013-02-26 00:53:00,
2013-02-25 19:54:00,32.8,24.6,30.10,ENE,72,9.3,10.2,71,0.00,,,0.00,VWS V14.01,2013-02-26 00:54:00,
2013-02-25 19:56:00,33.0,24.7,30.09,East,81,14.0,14.0,71,0.00,,,0.00,VWS V14.01,2013-02-26 00:56:00,
2013-02-25 19:58:00,32.7,24.1,30.09,ENE,71,8.7,8.7,70,0.00,,,0.00,VWS V14.01,2013-02-26 00:58:00,
2013-02-25 19:59:00,32.6,24.2,30.09,East,90,8.8,8.8,71,0.00,,,0.00,VWS V14.01,2013-02-26 00:59:00,
2013-02-25 20:02:00,32.2,23.8,30.09,East,84,7.5,7.5,71,0.00,,,0.00,VWS V14.01,2013-02-26 01:02:00,
2013-02-25 20:03:00,32.2,24.0,30.09,East,85,7.8,8.8,71,0.00,,,0.00,VWS V14.01,2013-02-26 01:03:00,
2013-02-25 20:04:00,32.0,23.8,30.10,East,82,7.1,7.1,71,0.00,,,0.00,VWS V14.01,2013-02-26 01:04:00,
2013-02-25 20:07:00,32.1,23.8,30.10,East,95,7.6,7.6,71,0.00,,,0.00,VWS V14.01,2013-02-26 01:07:00,
2013-02-25 20:08:00,32.0,23.7,30.09,East,88,8.5,8.5,71,0.00,,,0.00,VWS V14.01,2013-02-26 01:08:00,
2013-02-25 20:09:00,31.8,23.8,30.09,ESE,107,6.9,7.1,72,0.00,,,0.00,VWS V14.01,2013-02-26 01:09:00,
2013-02-25 20:13:00,31.2,23.6,30.09,East,82,5.7,5.7,73,0.00,,,0.00,VWS V14.01,2013-02-26 01:13:00,
2013-02-25 20:15:00,31.6,24.5,30.09,ESE,119,6.9,6.9,75,0.00,,,0.00,VWS V14.01,2013-02-26 01:15:00,
2013-02-25 20:16:00,31.6,24.5,30.09,East,97,8.1,8.1,75,0.00,,,0.00,VWS V14.01,2013-02-26 01:16:00,
2013-02-25 20:18:00,31.2,24.1,30.10,ESE,106,6.3,6.3,75,0.00,,,0.00,VWS V14.01,2013-02-26 01:18:00,
2013-02-25 20:20:00,31.2,24.0,30.09,East,89,6.4,6.9,74,0.00,,,0.00,VWS V14.01,2013-02-26 01:20:00,
2013-02-25 20:21:00,31.6,24.5,30.09,East,93,8.3,8.3,75,0.00,,,0.00,VWS V14.01,2013-02-26 01:21:00,
2013-02-25 20:22:00,31.7,24.5,30.09,East,96,8.0,8.0,74,0.00,,,0.00,VWS V14.01,2013-02-26 01:22:00,
2013-02-25 20:26:00,31.8,23.6,30.14,East,80,7.1,7.1,71,0.00,,,0.00,VWS V14.01,2013-02-26 01:26:00,
2013-02-25 20:27:00,32.2,23.6,30.10,East,81,10.7,10.7,70,0.00,,,0.00,VWS V14.01,2013-02-26 01:27:00,
2013-02-25 20:28:00,31.6,22.8,30.10,ENE,78,5.7,8.8,70,0.00,,,0.00,VWS V14.01,2013-02-26 01:28:00,
2013-02-25 20:30:00,31.0,22.4,30.08,ENE,70,8.1,8.1,70,0.00,,,0.00,VWS V14.01,2013-02-26 01:30:00,
2013-02-25 20:31:00,31.8,22.8,30.08,ENE,75,7.1,11.9,69,0.00,,,0.00,VWS V14.01,2013-02-26 01:31:00,
2013-02-25 20:32:00,31.5,22.6,30.08,East,81,8.0,8.0,69,0.00,,,0.00,VWS V14.01,2013-02-26 01:32:00,
2013-02-25 20:33:00,31.5,22.6,30.08,East,81,8.0,8.0,69,0.00,,,0.00,VWS V14.01,2013-02-26 01:33:00,
2013-02-25 20:37:00,31.3,22.7,30.08,East,87,8.3,9.5,70,0.00,,,0.00,VWS V14.01,2013-02-26 01:37:00,
2013-02-25 20:39:00,31.7,22.7,30.08,East,85,9.7,10.0,69,0.00,,,0.00,VWS V14.01,2013-02-26 01:39:00,
2013-02-25 20:42:00,31.4,22.0,30.08,ENE,65,7.1,7.1,68,0.00,,,0.00,VWS V14.01,2013-02-26 01:42:00,
2013-02-25 20:44:00,31.0,21.7,30.08,East,95,5.9,8.3,68,0.00,,,0.00,VWS V14.01,2013-02-26 01:44:00,
2013-02-25 20:47:00,31.5,21.8,30.08,ENE,76,9.5,9.5,67,0.00,,,0.00,VWS V14.01,2013-02-26 01:47:00,
2013-02-25 20:49:00,31.1,21.4,30.08,East,90,6.9,6.9,67,0.00,,,0.00,VWS V14.01,2013-02-26 01:49:00,
2013-02-25 20:50:00,31.3,21.6,30.08,ESE,103,7.5,8.5,67,0.00,,,0.00,VWS V14.01,2013-02-26 01:50:00,
2013-02-25 20:53:00,31.0,20.9,30.07,ENE,74,4.9,4.9,66,0.00,,,0.00,VWS V14.01,2013-02-26 01:53:00,
2013-02-25 20:54:00,31.0,21.0,30.07,ENE,65,6.9,8.1,66,0.00,,,0.00,VWS V14.01,2013-02-26 01:54:00,
2013-02-25 20:55:00,31.5,21.2,30.07,ENE,62,9.7,9.7,65,0.00,,,0.00,VWS V14.01,2013-02-26 01:55:00,
2013-02-25 20:58:00,31.3,20.4,30.07,ENE,71,10.2,12.9,63,0.00,,,0.00,VWS V14.01,2013-02-26 01:58:00,
2013-02-25 20:59:00,31.7,20.5,30.07,East,84,13.1,13.1,63,0.00,,,0.00,VWS V14.01,2013-02-26 01:59:00,
2013-02-25 21:00:00,31.3,20.0,30.07,East,82,8.8,11.6,63,0.00,,,0.00,VWS V14.01,2013-02-26 02:00:00,
2013-02-25 21:01:00,30.8,19.8,30.07,ENE,61,8.1,11.6,63,0.00,,,0.00,VWS V14.01,2013-02-26 02:01:00,
2013-02-25 21:03:00,31.2,20.4,30.06,ENE,72,8.1,11.6,64,0.00,,,0.00,VWS V14.01,2013-02-26 02:03:00,
2013-02-25 21:06:00,30.9,20.2,30.05,ENE,73,9.7,11.6,64,0.00,,,0.00,VWS V14.01,2013-02-26 02:06:00,
2013-02-25 21:07:00,31.1,20.4,30.05,ENE,76,10.4,11.6,64,0.00,,,0.00,VWS V14.01,2013-02-26 02:07:00,
2013-02-25 21:08:00,30.5,20.0,30.05,ENE,77,6.3,11.6,64,0.00,,,0.00,VWS V14.01,2013-02-26 02:08:00,
2013-02-25 21:09:00,30.8,20.5,30.06,ENE,73,8.5,11.6,65,0.00,,,0.00,VWS V14.01,2013-02-26 02:09:00,
2013-02-25 21:12:00,30.8,20.3,30.05,East,90,10.7,11.6,64,0.00,,,0.00,VWS V14.01,2013-02-26 02:12:00,
2013-02-25 21:14:00,31.0,20.3,30.06,East,96,12.3,12.3,64,0.00,,,0.00,VWS V14.01,2013-02-26 02:14:00,
2013-02-25 21:15:00,31.2,20.6,30.06,ENE,77,11.6,12.3,65,0.00,,,0.00,VWS V14.01,2013-02-26 02:15:00,
2013-02-25 21:19:00,30.6,20.1,30.05,ENE,73,9.7,12.6,65,0.00,,,0.00,VWS V14.01,2013-02-26 02:19:00,
2013-02-25 21:20:00,30.8,20.3,30.04,East,83,9.5,12.6,65,0.00,,,0.00,VWS V14.01,2013-02-26 02:20:00,
2013-02-25 21:21:00,30.7,20.1,30.06,ENE,78,9.9,12.8,64,0.00,,,0.00,VWS V14.01,2013-02-26 02:21:00,
2013-02-25 21:24:00,31.2,20.8,30.05,East,82,11.4,12.8,65,0.00,,,0.00,VWS V14.01,2013-02-26 02:24:00,
2013-02-25 21:25:00,31.1,20.4,30.05,ENE,78,12.3,12.8,64,0.00,,,0.00,VWS V14.01,2013-02-26 02:25:00,
2013-02-25 21:26:00,30.8,20.2,30.05,East,85,10.7,13.6,64,0.00,,,0.00,VWS V14.01,2013-02-26 02:26:00,
2013-02-25 21:28:00,31.0,20.3,30.05,ESE,110,11.2,13.6,64,0.00,,,0.00,VWS V14.01,2013-02-26 02:28:00,
2013-02-25 21:29:00,30.7,20.1,30.05,East,89,8.7,13.6,64,0.00,,,0.00,VWS V14.01,2013-02-26 02:29:00,
2013-02-25 21:31:00,30.6,20.1,30.06,ENE,72,9.0,13.6,65,0.00,,,0.00,VWS V14.01,2013-02-26 02:31:00,
2013-02-25 21:33:00,30.7,20.4,30.06,East,94,9.7,13.6,65,0.00,,,0.00,VWS V14.01,2013-02-26 02:33:00,
2013-02-25 21:34:00,30.6,20.2,30.06,ENE,70,9.3,13.6,65,0.00,,,0.00,VWS V14.01,2013-02-26 02:34:00,
2013-02-25 21:35:00,30.7,20.4,30.06,East,100,7.3,13.6,65,0.00,,,0.00,VWS V14.01,2013-02-26 02:35:00,
2013-02-25 21:37:00,30.5,20.4,30.06,NE,54,7.8,13.6,66,0.00,,,0.00,VWS V14.01,2013-02-26 02:37:00,
2013-02-25 21:38:00,30.5,20.5,30.06,ENE,60,9.9,13.6,66,0.00,,,0.00,VWS V14.01,2013-02-26 02:38:00,
2013-02-25 21:39:00,30.5,20.3,30.07,East,93,8.1,13.6,66,0.00,,,0.00,VWS V14.01,2013-02-26 02:39:00,
2013-02-25 21:40:00,30.2,20.4,30.06,ESE,104,8.7,13.6,67,0.00,,,0.00,VWS V14.01,2013-02-26 02:40:00,
2013-02-25 21:43:00,30.4,20.8,30.07,East,81,9.5,13.6,67,0.00,,,0.00,VWS V14.01,2013-02-26 02:43:00,
2013-02-25 21:44:00,30.4,20.8,30.07,East,95,11.1,13.6,67,0.00,,,0.00,VWS V14.01,2013-02-26 02:44:00,
2013-02-25 21:45:00,30.8,21.1,30.07,East,84,11.1,13.6,67,0.00,,,0.00,VWS V14.01,2013-02-26 02:45:00,
2013-02-25 21:46:00,30.5,20.8,30.07,East,82,9.9,13.6,67,0.00,,,0.00,VWS V14.01,2013-02-26 02:46:00,
2013-02-25 21:51:00,30.5,20.9,30.07,East,79,8.8,13.6,67,0.00,,,0.00,VWS V14.01,2013-02-26 02:51:00,
2013-02-25 21:52:00,30.6,21.0,30.06,East,84,11.1,13.6,67,0.00,,,0.00,VWS V14.01,2013-02-26 02:52:00,
2013-02-25 21:56:00,30.0,20.9,30.07,East,79,6.4,13.6,68,0.00,,,0.00,VWS V14.01,2013-02-26 02:56:00,
2013-02-25 21:57:00,30.3,21.2,30.07,East,88,7.6,13.6,68,0.00,,,0.00,VWS V14.01,2013-02-26 02:57:00,
2013-02-25 21:58:00,29.9,20.6,30.06,East,88,7.6,13.6,68,0.00,,,0.00,VWS V14.01,2013-02-26 02:58:00,
2013-02-25 22:02:00,29.8,20.8,30.07,East,82,7.8,7.8,69,0.00,,,0.00,VWS V14.01,2013-02-26 03:02:00,
2013-02-25 22:03:00,30.1,21.5,30.07,ESE,102,8.5,8.5,70,0.00,,,0.00,VWS V14.01,2013-02-26 03:03:00,
2013-02-25 22:04:00,30.1,21.5,30.07,East,89,8.7,8.7,70,0.00,,,0.00,VWS V14.01,2013-02-26 03:04:00,
2013-02-25 22:08:00,29.8,21.9,30.08,ENE,75,8.8,9.0,72,0.00,,,0.00,VWS V14.01,2013-02-26 03:08:00,
2013-02-25 22:09:00,29.9,22.0,30.07,East,91,8.8,8.8,72,0.00,,,0.00,VWS V14.01,2013-02-26 03:09:00,
2013-02-25 22:10:00,29.8,21.7,30.08,East,100,8.0,8.8,72,0.00,,,0.00,VWS V14.01,2013-02-26 03:10:00,
2013-02-25 22:13:00,29.7,21.6,30.09,East,100,6.4,6.9,72,0.00,,,0.00,VWS V14.01,2013-02-26 03:13:00,
2013-02-25 22:15:00,29.6,21.8,30.10,East,85,7.5,7.5,72,0.00,,,0.00,VWS V14.01,2013-02-26 03:15:00,
2013-02-25 22:17:00,29.6,21.8,30.10,ESE,104,6.4,8.7,72,0.00,,,0.00,VWS V14.01,2013-02-26 03:17:00,
2013-02-25 22:18:00,29.9,22.1,30.10,ESE,121,6.4,6.4,72,0.00,,,0.00,VWS V14.01,2013-02-26 03:18:00,
2013-02-25 22:20:00,29.9,22.2,30.11,ESE,110,7.8,7.8,73,0.00,,,0.00,VWS V14.01,2013-02-26 03:20:00,
2013-02-25 22:23:00,29.4,21.8,30.10,SE,126,5.6,7.8,73,0.00,,,0.00,VWS V14.01,2013-02-26 03:23:00,
2013-02-25 22:24:00,29.8,22.2,30.11,ESE,111,7.8,8.5,73,0.00,,,0.00,VWS V14.01,2013-02-26 03:24:00,
2013-02-25 22:25:00,29.6,22.0,30.11,ESE,116,8.3,9.0,73,0.00,,,0.00,VWS V14.01,2013-02-26 03:25:00,
2013-02-25 22:28:00,29.3,21.7,30.11,East,88,5.7,5.9,73,0.00,,,0.00,VWS V14.01,2013-02-26 03:28:00,
2013-02-25 22:30:00,29.3,21.9,30.11,ESE,110,6.4,6.4,73,0.00,,,0.00,VWS V14.01,2013-02-26 03:30:00,
2013-02-25 22:35:00,29.4,21.7,30.10,East,101,7.1,7.6,73,0.00,,,0.00,VWS V14.01,2013-02-26 03:35:00,
2013-02-25 22:36:00,29.4,21.8,30.10,East,95,7.6,8.3,73,0.00,,,0.00,VWS V14.01,2013-02-26 03:36:00,
2013-02-25 22:39:00,29.8,22.5,30.11,East,101,10.4,10.4,74,0.00,,,0.00,VWS V14.01,2013-02-26 03:39:00,
2013-02-25 22:40:00,29.2,21.8,30.10,ESE,114,7.1,10.4,73,0.00,,,0.00,VWS V14.01,2013-02-26 03:40:00,
2013-02-25 22:41:00,29.2,21.9,30.10,East,87,6.6,6.6,74,0.00,,,0.00,VWS V14.01,2013-02-26 03:41:00,
2013-02-25 22:42:00,29.2,21.9,30.10,East,87,6.6,6.6,74,0.00,,,0.00,VWS V14.01,2013-02-26 03:42:00,
2013-02-25 22:44:00,29.1,21.9,30.10,East,92,6.9,9.0,74,0.00,,,0.00,VWS V14.01,2013-02-26 03:44:00,
2013-02-25 22:47:00,29.0,22.3,30.10,East,90,8.0,8.0,76,0.00,,,0.00,VWS V14.01,2013-02-26 03:47:00,
2013-02-25 22:48:00,29.4,22.9,30.10,East,82,9.5,9.5,77,0.00,,,0.00,VWS V14.01,2013-02-26 03:48:00,
2013-02-25 22:50:00,29.1,22.7,30.10,East,96,6.9,6.9,77,0.00,,,0.00,VWS V14.01,2013-02-26 03:50:00,
2013-02-25 22:52:00,29.0,22.6,30.10,ESE,108,8.0,8.0,77,0.00,,,0.00,VWS V14.01,2013-02-26 03:52:00,
2013-02-25 22:55:00,28.9,21.0,30.10,ENE,76,5.4,5.4,72,0.00,,,0.00,VWS V14.01,2013-02-26 03:55:00,
2013-02-25 22:56:00,28.9,22.8,30.10,ENE,78,5.7,5.7,78,0.00,,,0.00,VWS V14.01,2013-02-26 03:56:00,
2013-02-25 22:57:00,29.0,23.0,30.10,East,90,6.9,7.1,78,0.00,,,0.00,VWS V14.01,2013-02-26 03:57:00,
2013-02-25 22:58:00,28.9,21.9,30.10,ESE,105,5.9,6.9,75,0.00,,,0.00,VWS V14.01,2013-02-26 03:58:00,
2013-02-25 23:00:00,29.1,23.1,30.10,East,90,7.1,7.8,78,0.00,,,0.00,VWS V14.01,2013-02-26 04:00:00,
2013-02-25 23:03:00,29.5,23.5,30.09,East,94,10.0,10.0,78,0.00,,,0.00,VWS V14.01,2013-02-26 04:03:00,
2013-02-25 23:04:00,28.9,22.8,30.09,ENE,76,6.9,7.1,78,0.00,,,0.00,VWS V14.01,2013-02-26 04:04:00,
2013-02-25 23:08:00,28.8,22.8,30.09,East,82,5.2,5.9,78,0.00,,,0.00,VWS V14.01,2013-02-26 04:08:00,
2013-02-25 23:09:00,28.8,22.8,30.09,East,82,5.2,5.9,78,0.00,,,0.00,VWS V14.01,2013-02-26 04:09:00,
2013-02-25 23:10:00,29.2,23.1,30.09,East,91,7.1,7.1,78,0.00,,,0.00,VWS V14.01,2013-02-26 04:10:00,
2013-02-25 23:11:00,29.5,22.8,30.09,East,89,8.1,8.8,76,0.00,,,0.00,VWS V14.01,2013-02-26 04:11:00,
2013-02-25 23:14:00,29.6,19.4,30.09,East,99,10.0,10.0,65,0.00,,,0.00,VWS V14.01,2013-02-26 04:14:00,
2013-02-25 23:16:00,28.9,20.0,30.09,East,88,5.4,8.8,69,0.00,,,0.00,VWS V14.01,2013-02-26 04:16:00,
2013-02-25 23:17:00,29.0,22.2,30.09,East,94,7.1,7.1,75,0.00,,,0.00,VWS V14.01,2013-02-26 04:17:00,
2013-02-25 23:19:00,28.9,22.3,30.09,East,80,4.9,8.1,76,0.00,,,0.00,VWS V14.01,2013-02-26 04:19:00,
2013-02-25 23:21:00,29.0,22.6,30.10,East,80,6.4,6.4,77,0.00,,,0.00,VWS V14.01,2013-02-26 04:21:00,
2013-02-25 23:22:00,29.3,22.8,30.09,ENE,73,10.0,10.0,76,0.00,,,0.00,VWS V14.01,2013-02-26 04:22:00,
2013-02-25 23:24:00,29.1,22.2,30.09,East,90,7.6,8.5,75,0.00,,,0.00,VWS V14.01,2013-02-26 04:24:00,
2013-02-25 23:27:00,28.9,22.1,30.09,East,89,6.1,8.8,75,0.00,,,0.00,VWS V14.01,2013-02-26 04:27:00,
2013-02-25 23:28:00,29.2,22.5,30.10,East,97,6.6,6.6,75,0.00,,,0.00,VWS V14.01,2013-02-26 04:28:00,
2013-02-25 23:29:00,29.0,22.3,30.10,East,79,6.6,6.6,76,0.00,,,0.00,VWS V14.01,2013-02-26 04:29:00,
2013-02-25 23:32:00,28.8,22.3,30.10,East,92,5.4,6.1,76,0.00,,,0.00,VWS V14.01,2013-02-26 04:32:00,
2013-02-25 23:34:00,29.0,22.8,30.10,East,82,7.6,7.6,77,0.00,,,0.00,VWS V14.01,2013-02-26 04:34:00,
2013-02-25 23:35:00,28.7,22.4,30.09,ESE,102,7.1,7.1,77,0.00,,,0.00,VWS V14.01,2013-02-26 04:35:00,
2013-02-25 23:38:00,28.8,22.5,30.10,East,79,6.9,8.1,77,0.00,,,0.00,VWS V14.01,2013-02-26 04:38:00,
2013-02-25 23:39:00,28.8,22.6,30.09,East,84,7.1,7.8,77,0.00,,,0.00,VWS V14.01,2013-02-26 04:39:00,
2013-02-25 23:40:00,29.0,22.6,30.08,ENE,70,6.6,7.1,77,0.00,,,0.00,VWS V14.01,2013-02-26 04:40:00,
2013-02-25 23:41:00,29.2,22.7,30.09,East,92,9.7,9.7,76,0.00,,,0.00,VWS V14.01,2013-02-26 04:41:00,
2013-02-25 23:44:00,29.1,22.8,30.08,East,88,9.9,9.9,77,0.00,,,0.00,VWS V14.01,2013-02-26 04:44:00,
2013-02-25 23:45:00,29.1,22.9,30.08,East,88,9.3,9.9,77,0.00,,,0.00,VWS V14.01,2013-02-26 04:45:00,
2013-02-25 23:46:00,28.6,22.3,30.08,ENE,68,7.5,9.3,77,0.00,,,0.00,VWS V14.01,2013-02-26 04:46:00,
2013-02-25 23:47:00,28.9,22.8,30.08,ENE,76,8.5,8.5,78,0.00,,,0.00,VWS V14.01,2013-02-26 04:47:00,
2013-02-25 23:50:00,28.8,23.0,30.09,ENE,73,8.3,8.3,79,0.00,,,0.00,VWS V14.01,2013-02-26 04:50:00,
2013-02-25 23:51:00,29.1,23.3,30.08,East,86,8.3,8.3,79,0.00,,,0.00,VWS V14.01,2013-02-26 04:51:00,
2013-02-25 23:52:00,28.5,22.8,30.08,ENE,71,6.3,6.3,79,0.00,,,0.00,VWS V14.01,2013-02-26 04:52:00,
2013-02-25 23:55:00,28.8,23.0,30.07,ENE,70,9.0,9.0,79,0.00,,,0.00,VWS V14.01,2013-02-26 04:55:00,
2013-02-25 23:57:00,28.6,22.9,30.08,ENE,64,7.8,9.2,79,0.00,,,0.00,VWS V14.01,2013-02-26 04:57:00,